<?xml version="1.0" encoding="UTF-8" standalone="no" ?>
<gpx xmlns="http://www.topografix.com/GPX/1/1" xmlns:xsi="http://www.w3.org/2001/XMLSchema-instance" xsi:schemaLocation="http://www.topografix.com/GPX/1/1 http://www.topografix.com/GPX/1/1/gpx.xsd" version="1.1" creator="VisuGPX - https://www.visugpx.com">
  <metadata>
    <name>autour de la station du Granier en chartreuse</name>
    <desc><![CDATA[Jolie sortie autour de la station du Granier en Chartreuse.]]></desc>
  </metadata>
  <trk>
    <name><![CDATA[20170314_094345.gpx]]></name>
    <trkseg>
      <trkpt lat="45.46297" lon="5.89847">
        <ele>983.9</ele>
        <time>2017-03-14T08:43:47Z</time>
      </trkpt>
      <trkpt lat="45.46315" lon="5.89854">
        <ele>870.8089</ele>
        <time>2017-03-14T08:44:37Z</time>
      </trkpt>
      <trkpt lat="45.46315" lon="5.89855">
        <ele>870.85913</ele>
        <time>2017-03-14T08:44:38Z</time>
      </trkpt>
      <trkpt lat="45.46322" lon="5.89866">
        <ele>870.9331</ele>
        <time>2017-03-14T08:44:51Z</time>
      </trkpt>
      <trkpt lat="45.46322" lon="5.89867">
        <ele>870.42053</ele>
        <time>2017-03-14T08:44:52Z</time>
      </trkpt>
      <trkpt lat="45.46326" lon="5.8988">
        <ele>870.9569</ele>
        <time>2017-03-14T08:45:00Z</time>
      </trkpt>
      <trkpt lat="45.46316" lon="5.89883">
        <ele>872.2199</ele>
        <time>2017-03-14T08:45:08Z</time>
      </trkpt>
      <trkpt lat="45.46315" lon="5.89883">
        <ele>871.54346</ele>
        <time>2017-03-14T08:45:09Z</time>
      </trkpt>
      <trkpt lat="45.46306" lon="5.89877">
        <ele>872.26215</ele>
        <time>2017-03-14T08:45:19Z</time>
      </trkpt>
      <trkpt lat="45.46305" lon="5.89877">
        <ele>872.2384</ele>
        <time>2017-03-14T08:45:20Z</time>
      </trkpt>
      <trkpt lat="45.46296" lon="5.89874">
        <ele>873.4988</ele>
        <time>2017-03-14T08:45:32Z</time>
      </trkpt>
      <trkpt lat="45.46295" lon="5.89874">
        <ele>874.4209</ele>
        <time>2017-03-14T08:45:33Z</time>
      </trkpt>
      <trkpt lat="45.46294" lon="5.89874">
        <ele>875.11847</ele>
        <time>2017-03-14T08:45:34Z</time>
      </trkpt>
      <trkpt lat="45.46293" lon="5.89875">
        <ele>875.5465</ele>
        <time>2017-03-14T08:45:35Z</time>
      </trkpt>
      <trkpt lat="45.46293" lon="5.89876">
        <ele>875.55707</ele>
        <time>2017-03-14T08:45:36Z</time>
      </trkpt>
      <trkpt lat="45.46293" lon="5.89877">
        <ele>875.53064</ele>
        <time>2017-03-14T08:45:37Z</time>
      </trkpt>
      <trkpt lat="45.46298" lon="5.89888">
        <ele>875.166</ele>
        <time>2017-03-14T08:45:48Z</time>
      </trkpt>
      <trkpt lat="45.46305" lon="5.89897">
        <ele>875.6311</ele>
        <time>2017-03-14T08:45:57Z</time>
      </trkpt>
      <trkpt lat="45.46306" lon="5.89898">
        <ele>875.824</ele>
        <time>2017-03-14T08:45:58Z</time>
      </trkpt>
      <trkpt lat="45.46312" lon="5.89911">
        <ele>876.03</ele>
        <time>2017-03-14T08:46:11Z</time>
      </trkpt>
      <trkpt lat="45.46334" lon="5.89933">
        <ele>878.04614</ele>
        <time>2017-03-14T08:46:33Z</time>
      </trkpt>
      <trkpt lat="45.4634" lon="5.89937">
        <ele>876.7963</ele>
        <time>2017-03-14T08:46:34Z</time>
      </trkpt>
      <trkpt lat="45.46347" lon="5.89945">
        <ele>876.7831</ele>
        <time>2017-03-14T08:46:37Z</time>
      </trkpt>
      <trkpt lat="45.46338" lon="5.89949">
        <ele>876.9733</ele>
        <time>2017-03-14T08:46:41Z</time>
      </trkpt>
      <trkpt lat="45.46335" lon="5.89961">
        <ele>878.58514</ele>
        <time>2017-03-14T08:46:52Z</time>
      </trkpt>
      <trkpt lat="45.46335" lon="5.89962">
        <ele>879.44385</ele>
        <time>2017-03-14T08:46:53Z</time>
      </trkpt>
      <trkpt lat="45.46336" lon="5.89963">
        <ele>879.2457</ele>
        <time>2017-03-14T08:46:54Z</time>
      </trkpt>
      <trkpt lat="45.46342" lon="5.89974">
        <ele>879.6605</ele>
        <time>2017-03-14T08:47:03Z</time>
      </trkpt>
      <trkpt lat="45.46343" lon="5.89975">
        <ele>879.5601</ele>
        <time>2017-03-14T08:47:04Z</time>
      </trkpt>
      <trkpt lat="45.46347" lon="5.89987">
        <ele>880.2894</ele>
        <time>2017-03-14T08:47:14Z</time>
      </trkpt>
      <trkpt lat="45.46348" lon="5.89988">
        <ele>880.115</ele>
        <time>2017-03-14T08:47:15Z</time>
      </trkpt>
      <trkpt lat="45.46352" lon="5.9">
        <ele>880.71747</ele>
        <time>2017-03-14T08:47:25Z</time>
      </trkpt>
      <trkpt lat="45.46352" lon="5.9">
        <ele>880.71747</ele>
        <time>2017-03-14T08:47:25Z</time>
      </trkpt>
      <trkpt lat="45.46357" lon="5.90012">
        <ele>882.2632</ele>
        <time>2017-03-14T08:47:36Z</time>
      </trkpt>
      <trkpt lat="45.46356" lon="5.90012">
        <ele>882.0042</ele>
        <time>2017-03-14T08:47:37Z</time>
      </trkpt>
      <trkpt lat="45.46354" lon="5.90025">
        <ele>884.88696</ele>
        <time>2017-03-14T08:47:50Z</time>
      </trkpt>
      <trkpt lat="45.46351" lon="5.90025">
        <ele>884.76276</ele>
        <time>2017-03-14T08:47:51Z</time>
      </trkpt>
      <trkpt lat="45.46344" lon="5.90035">
        <ele>886.3349</ele>
        <time>2017-03-14T08:48:17Z</time>
      </trkpt>
      <trkpt lat="45.46343" lon="5.90036">
        <ele>886.3534</ele>
        <time>2017-03-14T08:48:20Z</time>
      </trkpt>
      <trkpt lat="45.46342" lon="5.90039">
        <ele>885.90686</ele>
        <time>2017-03-14T08:52:01Z</time>
      </trkpt>
      <trkpt lat="45.46349" lon="5.90029">
        <ele>882.6252</ele>
        <time>2017-03-14T08:52:15Z</time>
      </trkpt>
      <trkpt lat="45.46349" lon="5.90015">
        <ele>881.7876</ele>
        <time>2017-03-14T08:52:31Z</time>
      </trkpt>
      <trkpt lat="45.46344" lon="5.90004">
        <ele>880.71747</ele>
        <time>2017-03-14T08:52:42Z</time>
      </trkpt>
      <trkpt lat="45.46339" lon="5.89992">
        <ele>880.16785</ele>
        <time>2017-03-14T08:53:24Z</time>
      </trkpt>
      <trkpt lat="45.46332" lon="5.89983">
        <ele>880.58795</ele>
        <time>2017-03-14T08:53:39Z</time>
      </trkpt>
      <trkpt lat="45.46326" lon="5.89973">
        <ele>878.6353</ele>
        <time>2017-03-14T08:53:49Z</time>
      </trkpt>
      <trkpt lat="45.46317" lon="5.89975">
        <ele>879.33026</ele>
        <time>2017-03-14T08:54:05Z</time>
      </trkpt>
      <trkpt lat="45.46309" lon="5.89985">
        <ele>882.3213</ele>
        <time>2017-03-14T08:54:22Z</time>
      </trkpt>
      <trkpt lat="45.46304" lon="5.89997">
        <ele>883.07434</ele>
        <time>2017-03-14T08:54:32Z</time>
      </trkpt>
      <trkpt lat="45.46309" lon="5.90009">
        <ele>885.8699</ele>
        <time>2017-03-14T08:54:40Z</time>
      </trkpt>
      <trkpt lat="45.46312" lon="5.90021">
        <ele>885.26746</ele>
        <time>2017-03-14T08:54:50Z</time>
      </trkpt>
      <trkpt lat="45.46312" lon="5.90035">
        <ele>887.3522</ele>
        <time>2017-03-14T08:55:05Z</time>
      </trkpt>
      <trkpt lat="45.46311" lon="5.90037">
        <ele>886.52515</ele>
        <time>2017-03-14T08:55:06Z</time>
      </trkpt>
      <trkpt lat="45.46316" lon="5.90049">
        <ele>887.91235</ele>
        <time>2017-03-14T08:55:16Z</time>
      </trkpt>
      <trkpt lat="45.46316" lon="5.90051">
        <ele>888.35095</ele>
        <time>2017-03-14T08:55:17Z</time>
      </trkpt>
      <trkpt lat="45.46316" lon="5.90064">
        <ele>890.1636</ele>
        <time>2017-03-14T08:55:27Z</time>
      </trkpt>
      <trkpt lat="45.46317" lon="5.90065">
        <ele>889.363</ele>
        <time>2017-03-14T08:55:28Z</time>
      </trkpt>
      <trkpt lat="45.46315" lon="5.90079">
        <ele>890.76337</ele>
        <time>2017-03-14T08:55:43Z</time>
      </trkpt>
      <trkpt lat="45.46315" lon="5.9008">
        <ele>890.47534</ele>
        <time>2017-03-14T08:55:44Z</time>
      </trkpt>
      <trkpt lat="45.46311" lon="5.90092">
        <ele>892.89307</ele>
        <time>2017-03-14T08:56:02Z</time>
      </trkpt>
      <trkpt lat="45.46311" lon="5.90092">
        <ele>892.2695</ele>
        <time>2017-03-14T08:56:03Z</time>
      </trkpt>
      <trkpt lat="45.46317" lon="5.90103">
        <ele>893.14935</ele>
        <time>2017-03-14T08:56:12Z</time>
      </trkpt>
      <trkpt lat="45.46317" lon="5.90104">
        <ele>892.4227</ele>
        <time>2017-03-14T08:56:13Z</time>
      </trkpt>
      <trkpt lat="45.46325" lon="5.90109">
        <ele>893.91034</ele>
        <time>2017-03-14T08:56:26Z</time>
      </trkpt>
      <trkpt lat="45.46326" lon="5.90109">
        <ele>892.8746</ele>
        <time>2017-03-14T08:56:27Z</time>
      </trkpt>
      <trkpt lat="45.46333" lon="5.90101">
        <ele>895.7388</ele>
        <time>2017-03-14T08:56:42Z</time>
      </trkpt>
      <trkpt lat="45.46335" lon="5.90102">
        <ele>895.9053</ele>
        <time>2017-03-14T08:56:43Z</time>
      </trkpt>
      <trkpt lat="45.46335" lon="5.90101">
        <ele>895.8286</ele>
        <time>2017-03-14T08:56:44Z</time>
      </trkpt>
      <trkpt lat="45.46343" lon="5.90095">
        <ele>898.529</ele>
        <time>2017-03-14T08:57:04Z</time>
      </trkpt>
      <trkpt lat="45.46344" lon="5.90095">
        <ele>899.1367</ele>
        <time>2017-03-14T08:57:05Z</time>
      </trkpt>
      <trkpt lat="45.4635" lon="5.90084">
        <ele>899.09973</ele>
        <time>2017-03-14T08:57:19Z</time>
      </trkpt>
      <trkpt lat="45.46351" lon="5.90083">
        <ele>899.22925</ele>
        <time>2017-03-14T08:57:20Z</time>
      </trkpt>
      <trkpt lat="45.46355" lon="5.90071">
        <ele>901.3853</ele>
        <time>2017-03-14T08:57:34Z</time>
      </trkpt>
      <trkpt lat="45.46355" lon="5.90071">
        <ele>902.1701</ele>
        <time>2017-03-14T08:57:35Z</time>
      </trkpt>
      <trkpt lat="45.46357" lon="5.9007">
        <ele>901.7235</ele>
        <time>2017-03-14T08:57:36Z</time>
      </trkpt>
      <trkpt lat="45.46365" lon="5.90065">
        <ele>904.6327</ele>
        <time>2017-03-14T08:57:50Z</time>
      </trkpt>
      <trkpt lat="45.46365" lon="5.90064">
        <ele>904.5455</ele>
        <time>2017-03-14T08:57:52Z</time>
      </trkpt>
      <trkpt lat="45.46374" lon="5.90058">
        <ele>906.66724</ele>
        <time>2017-03-14T08:58:07Z</time>
      </trkpt>
      <trkpt lat="45.46374" lon="5.90058">
        <ele>906.56683</ele>
        <time>2017-03-14T08:58:08Z</time>
      </trkpt>
      <trkpt lat="45.46385" lon="5.90064">
        <ele>909.0347</ele>
        <time>2017-03-14T08:58:41Z</time>
      </trkpt>
      <trkpt lat="45.46388" lon="5.90065">
        <ele>910.70197</ele>
        <time>2017-03-14T08:58:42Z</time>
      </trkpt>
      <trkpt lat="45.46389" lon="5.90067">
        <ele>911.0719</ele>
        <time>2017-03-14T08:58:43Z</time>
      </trkpt>
      <trkpt lat="45.46399" lon="5.90079">
        <ele>912.00726</ele>
        <time>2017-03-14T09:01:23Z</time>
      </trkpt>
      <trkpt lat="45.46402" lon="5.90079">
        <ele>912.86334</ele>
        <time>2017-03-14T09:01:24Z</time>
      </trkpt>
      <trkpt lat="45.46411" lon="5.90082">
        <ele>914.3589</ele>
        <time>2017-03-14T09:01:33Z</time>
      </trkpt>
      <trkpt lat="45.46412" lon="5.90083">
        <ele>912.4538</ele>
        <time>2017-03-14T09:01:34Z</time>
      </trkpt>
      <trkpt lat="45.46423" lon="5.90083">
        <ele>915.6668</ele>
        <time>2017-03-14T09:02:04Z</time>
      </trkpt>
      <trkpt lat="45.46424" lon="5.90083">
        <ele>915.5796</ele>
        <time>2017-03-14T09:02:05Z</time>
      </trkpt>
      <trkpt lat="45.46432" lon="5.90089">
        <ele>916.9166</ele>
        <time>2017-03-14T09:02:22Z</time>
      </trkpt>
      <trkpt lat="45.46433" lon="5.9009">
        <ele>916.83997</ele>
        <time>2017-03-14T09:02:23Z</time>
      </trkpt>
      <trkpt lat="45.46441" lon="5.90098">
        <ele>917.88104</ele>
        <time>2017-03-14T09:02:30Z</time>
      </trkpt>
      <trkpt lat="45.46443" lon="5.90099">
        <ele>917.6485</ele>
        <time>2017-03-14T09:02:31Z</time>
      </trkpt>
      <trkpt lat="45.46452" lon="5.90104">
        <ele>920.3172</ele>
        <time>2017-03-14T09:02:44Z</time>
      </trkpt>
      <trkpt lat="45.46452" lon="5.90104">
        <ele>917.2284</ele>
        <time>2017-03-14T09:02:45Z</time>
      </trkpt>
      <trkpt lat="45.4646" lon="5.9011">
        <ele>919.18634</ele>
        <time>2017-03-14T09:02:53Z</time>
      </trkpt>
      <trkpt lat="45.46468" lon="5.90118">
        <ele>920.555</ele>
        <time>2017-03-14T09:03:08Z</time>
      </trkpt>
      <trkpt lat="45.46468" lon="5.90119">
        <ele>920.4573</ele>
        <time>2017-03-14T09:03:09Z</time>
      </trkpt>
      <trkpt lat="45.46477" lon="5.90128">
        <ele>923.69666</ele>
        <time>2017-03-14T09:03:39Z</time>
      </trkpt>
      <trkpt lat="45.46478" lon="5.90129">
        <ele>923.8684</ele>
        <time>2017-03-14T09:03:40Z</time>
      </trkpt>
      <trkpt lat="45.46486" lon="5.90139">
        <ele>924.24365</ele>
        <time>2017-03-14T09:03:53Z</time>
      </trkpt>
      <trkpt lat="45.46487" lon="5.90141">
        <ele>924.5131</ele>
        <time>2017-03-14T09:03:54Z</time>
      </trkpt>
      <trkpt lat="45.46498" lon="5.90141">
        <ele>925.5304</ele>
        <time>2017-03-14T09:03:59Z</time>
      </trkpt>
      <trkpt lat="45.465" lon="5.9014">
        <ele>926.3099</ele>
        <time>2017-03-14T09:04:00Z</time>
      </trkpt>
      <trkpt lat="45.465" lon="5.90141">
        <ele>924.82495</ele>
        <time>2017-03-14T09:04:01Z</time>
      </trkpt>
      <trkpt lat="45.46509" lon="5.90147">
        <ele>927.6548</ele>
        <time>2017-03-14T09:04:16Z</time>
      </trkpt>
      <trkpt lat="45.4651" lon="5.90148">
        <ele>926.3733</ele>
        <time>2017-03-14T09:04:17Z</time>
      </trkpt>
      <trkpt lat="45.46518" lon="5.90154">
        <ele>926.294</ele>
        <time>2017-03-14T09:04:26Z</time>
      </trkpt>
      <trkpt lat="45.46527" lon="5.90161">
        <ele>928.66943</ele>
        <time>2017-03-14T09:04:51Z</time>
      </trkpt>
      <trkpt lat="45.46526" lon="5.90162">
        <ele>927.5438</ele>
        <time>2017-03-14T09:04:52Z</time>
      </trkpt>
      <trkpt lat="45.46536" lon="5.90166">
        <ele>928.3286</ele>
        <time>2017-03-14T09:05:00Z</time>
      </trkpt>
      <trkpt lat="45.46544" lon="5.90174">
        <ele>927.7235</ele>
        <time>2017-03-14T09:05:13Z</time>
      </trkpt>
      <trkpt lat="45.46544" lon="5.90175">
        <ele>928.2599</ele>
        <time>2017-03-14T09:05:14Z</time>
      </trkpt>
      <trkpt lat="45.46553" lon="5.9018">
        <ele>929.15295</ele>
        <time>2017-03-14T09:05:24Z</time>
      </trkpt>
      <trkpt lat="45.46566" lon="5.90188">
        <ele>928.3867</ele>
        <time>2017-03-14T09:05:50Z</time>
      </trkpt>
      <trkpt lat="45.46567" lon="5.90189">
        <ele>929.8294</ele>
        <time>2017-03-14T09:05:51Z</time>
      </trkpt>
      <trkpt lat="45.46578" lon="5.90194">
        <ele>930.57715</ele>
        <time>2017-03-14T09:06:03Z</time>
      </trkpt>
      <trkpt lat="45.46587" lon="5.90196">
        <ele>930.4926</ele>
        <time>2017-03-14T09:06:09Z</time>
      </trkpt>
      <trkpt lat="45.46601" lon="5.90206">
        <ele>930.4424</ele>
        <time>2017-03-14T09:08:05Z</time>
      </trkpt>
      <trkpt lat="45.4661" lon="5.90208">
        <ele>932.12286</ele>
        <time>2017-03-14T09:08:25Z</time>
      </trkpt>
      <trkpt lat="45.46611" lon="5.90208">
        <ele>931.9802</ele>
        <time>2017-03-14T09:08:26Z</time>
      </trkpt>
      <trkpt lat="45.46619" lon="5.9021">
        <ele>931.2985</ele>
        <time>2017-03-14T09:09:19Z</time>
      </trkpt>
      <trkpt lat="45.46628" lon="5.90214">
        <ele>932.3792</ele>
        <time>2017-03-14T09:09:32Z</time>
      </trkpt>
      <trkpt lat="45.46629" lon="5.90214">
        <ele>931.4306</ele>
        <time>2017-03-14T09:09:33Z</time>
      </trkpt>
      <trkpt lat="45.46638" lon="5.90219">
        <ele>931.82166</ele>
        <time>2017-03-14T09:09:45Z</time>
      </trkpt>
      <trkpt lat="45.46647" lon="5.90225">
        <ele>932.4796</ele>
        <time>2017-03-14T09:09:57Z</time>
      </trkpt>
      <trkpt lat="45.46648" lon="5.90225">
        <ele>932.6196</ele>
        <time>2017-03-14T09:09:58Z</time>
      </trkpt>
      <trkpt lat="45.46657" lon="5.90232">
        <ele>933.9249</ele>
        <time>2017-03-14T09:10:09Z</time>
      </trkpt>
      <trkpt lat="45.46657" lon="5.90233">
        <ele>933.5048</ele>
        <time>2017-03-14T09:10:10Z</time>
      </trkpt>
      <trkpt lat="45.46666" lon="5.90239">
        <ele>936.37695</ele>
        <time>2017-03-14T09:10:27Z</time>
      </trkpt>
      <trkpt lat="45.46666" lon="5.9024">
        <ele>936.3611</ele>
        <time>2017-03-14T09:10:28Z</time>
      </trkpt>
      <trkpt lat="45.46654" lon="5.90251">
        <ele>937.566</ele>
        <time>2017-03-14T09:14:10Z</time>
      </trkpt>
      <trkpt lat="45.46652" lon="5.9025">
        <ele>936.41394</ele>
        <time>2017-03-14T09:14:11Z</time>
      </trkpt>
      <trkpt lat="45.46643" lon="5.90255">
        <ele>937.3255</ele>
        <time>2017-03-14T09:14:25Z</time>
      </trkpt>
      <trkpt lat="45.46643" lon="5.90256">
        <ele>936.7839</ele>
        <time>2017-03-14T09:14:26Z</time>
      </trkpt>
      <trkpt lat="45.46634" lon="5.90263">
        <ele>939.00604</ele>
        <time>2017-03-14T09:14:38Z</time>
      </trkpt>
      <trkpt lat="45.46634" lon="5.90263">
        <ele>938.0892</ele>
        <time>2017-03-14T09:14:39Z</time>
      </trkpt>
      <trkpt lat="45.46625" lon="5.90268">
        <ele>939.92816</ele>
        <time>2017-03-14T09:14:51Z</time>
      </trkpt>
      <trkpt lat="45.46625" lon="5.90269">
        <ele>939.78284</ele>
        <time>2017-03-14T09:14:52Z</time>
      </trkpt>
      <trkpt lat="45.46616" lon="5.90277">
        <ele>940.86884</ele>
        <time>2017-03-14T09:15:02Z</time>
      </trkpt>
      <trkpt lat="45.46616" lon="5.90278">
        <ele>940.2294</ele>
        <time>2017-03-14T09:15:03Z</time>
      </trkpt>
      <trkpt lat="45.46607" lon="5.90283">
        <ele>940.02856</ele>
        <time>2017-03-14T09:15:14Z</time>
      </trkpt>
      <trkpt lat="45.46606" lon="5.90284">
        <ele>939.90704</ele>
        <time>2017-03-14T09:15:15Z</time>
      </trkpt>
      <trkpt lat="45.46598" lon="5.90293">
        <ele>942.11066</ele>
        <time>2017-03-14T09:15:26Z</time>
      </trkpt>
      <trkpt lat="45.46598" lon="5.90293">
        <ele>942.11066</ele>
        <time>2017-03-14T09:15:26Z</time>
      </trkpt>
      <trkpt lat="45.4659" lon="5.903">
        <ele>943.556</ele>
        <time>2017-03-14T09:15:35Z</time>
      </trkpt>
      <trkpt lat="45.4659" lon="5.903">
        <ele>943.93384</ele>
        <time>2017-03-14T09:15:36Z</time>
      </trkpt>
      <trkpt lat="45.46581" lon="5.90306">
        <ele>943.47144</ele>
        <time>2017-03-14T09:15:51Z</time>
      </trkpt>
      <trkpt lat="45.46572" lon="5.90312">
        <ele>945.1308</ele>
        <time>2017-03-14T09:16:01Z</time>
      </trkpt>
      <trkpt lat="45.46571" lon="5.90313">
        <ele>944.5918</ele>
        <time>2017-03-14T09:16:02Z</time>
      </trkpt>
      <trkpt lat="45.46563" lon="5.90319">
        <ele>945.09644</ele>
        <time>2017-03-14T09:16:15Z</time>
      </trkpt>
      <trkpt lat="45.46562" lon="5.9032">
        <ele>945.6143</ele>
        <time>2017-03-14T09:16:17Z</time>
      </trkpt>
      <trkpt lat="45.46555" lon="5.9033">
        <ele>945.12555</ele>
        <time>2017-03-14T09:16:26Z</time>
      </trkpt>
      <trkpt lat="45.46554" lon="5.9033">
        <ele>946.9196</ele>
        <time>2017-03-14T09:16:27Z</time>
      </trkpt>
      <trkpt lat="45.46554" lon="5.9033">
        <ele>946.9196</ele>
        <time>2017-03-14T09:16:27Z</time>
      </trkpt>
      <trkpt lat="45.46545" lon="5.90336">
        <ele>946.84827</ele>
        <time>2017-03-14T09:16:38Z</time>
      </trkpt>
      <trkpt lat="45.46545" lon="5.90337">
        <ele>947.4428</ele>
        <time>2017-03-14T09:16:39Z</time>
      </trkpt>
      <trkpt lat="45.46536" lon="5.90342">
        <ele>949.0255</ele>
        <time>2017-03-14T09:16:49Z</time>
      </trkpt>
      <trkpt lat="45.46535" lon="5.90342">
        <ele>948.13245</ele>
        <time>2017-03-14T09:16:50Z</time>
      </trkpt>
      <trkpt lat="45.46524" lon="5.90347">
        <ele>950.5818</ele>
        <time>2017-03-14T09:17:12Z</time>
      </trkpt>
      <trkpt lat="45.46523" lon="5.90347">
        <ele>949.945</ele>
        <time>2017-03-14T09:17:13Z</time>
      </trkpt>
      <trkpt lat="45.46513" lon="5.90348">
        <ele>951.54095</ele>
        <time>2017-03-14T09:17:23Z</time>
      </trkpt>
      <trkpt lat="45.46513" lon="5.90349">
        <ele>952.74054</ele>
        <time>2017-03-14T09:17:25Z</time>
      </trkpt>
      <trkpt lat="45.46513" lon="5.90348">
        <ele>952.9678</ele>
        <time>2017-03-14T09:17:26Z</time>
      </trkpt>
      <trkpt lat="45.46513" lon="5.90348">
        <ele>952.9678</ele>
        <time>2017-03-14T09:17:26Z</time>
      </trkpt>
      <trkpt lat="45.46503" lon="5.90352">
        <ele>953.70764</ele>
        <time>2017-03-14T09:17:35Z</time>
      </trkpt>
      <trkpt lat="45.46502" lon="5.90354">
        <ele>952.6507</ele>
        <time>2017-03-14T09:17:36Z</time>
      </trkpt>
      <trkpt lat="45.46493" lon="5.90356">
        <ele>954.7408</ele>
        <time>2017-03-14T09:17:49Z</time>
      </trkpt>
      <trkpt lat="45.46493" lon="5.90356">
        <ele>954.7408</ele>
        <time>2017-03-14T09:17:49Z</time>
      </trkpt>
      <trkpt lat="45.46484" lon="5.90364">
        <ele>955.95886</ele>
        <time>2017-03-14T09:18:02Z</time>
      </trkpt>
      <trkpt lat="45.46484" lon="5.90363">
        <ele>956.593</ele>
        <time>2017-03-14T09:18:03Z</time>
      </trkpt>
      <trkpt lat="45.46478" lon="5.90373">
        <ele>955.82935</ele>
        <time>2017-03-14T09:18:17Z</time>
      </trkpt>
      <trkpt lat="45.46478" lon="5.90374">
        <ele>956.6326</ele>
        <time>2017-03-14T09:18:18Z</time>
      </trkpt>
      <trkpt lat="45.46475" lon="5.90387">
        <ele>956.75415</ele>
        <time>2017-03-14T09:18:35Z</time>
      </trkpt>
      <trkpt lat="45.46473" lon="5.90401">
        <ele>957.3672</ele>
        <time>2017-03-14T09:18:46Z</time>
      </trkpt>
      <trkpt lat="45.46472" lon="5.90402">
        <ele>957.2641</ele>
        <time>2017-03-14T09:18:47Z</time>
      </trkpt>
      <trkpt lat="45.46469" lon="5.90416">
        <ele>957.9749</ele>
        <time>2017-03-14T09:19:00Z</time>
      </trkpt>
      <trkpt lat="45.46469" lon="5.90417">
        <ele>957.7371</ele>
        <time>2017-03-14T09:19:01Z</time>
      </trkpt>
      <trkpt lat="45.46467" lon="5.9043">
        <ele>957.7371</ele>
        <time>2017-03-14T09:19:19Z</time>
      </trkpt>
      <trkpt lat="45.4646" lon="5.90438">
        <ele>956.85724</ele>
        <time>2017-03-14T09:19:26Z</time>
      </trkpt>
      <trkpt lat="45.46453" lon="5.90443">
        <ele>957.27734</ele>
        <time>2017-03-14T09:23:28Z</time>
      </trkpt>
      <trkpt lat="45.46451" lon="5.90433">
        <ele>955.13446</ele>
        <time>2017-03-14T09:26:03Z</time>
      </trkpt>
      <trkpt lat="45.46443" lon="5.90426">
        <ele>953.417</ele>
        <time>2017-03-14T09:26:14Z</time>
      </trkpt>
      <trkpt lat="45.46434" lon="5.90424">
        <ele>953.6442</ele>
        <time>2017-03-14T09:26:25Z</time>
      </trkpt>
      <trkpt lat="45.46425" lon="5.9043">
        <ele>952.2755</ele>
        <time>2017-03-14T09:26:35Z</time>
      </trkpt>
      <trkpt lat="45.46415" lon="5.90431">
        <ele>950.1485</ele>
        <time>2017-03-14T09:26:47Z</time>
      </trkpt>
      <trkpt lat="45.46402" lon="5.90419">
        <ele>948.756</ele>
        <time>2017-03-14T09:30:27Z</time>
      </trkpt>
      <trkpt lat="45.46393" lon="5.90417">
        <ele>947.5617</ele>
        <time>2017-03-14T09:30:39Z</time>
      </trkpt>
      <trkpt lat="45.46384" lon="5.90411">
        <ele>946.2168</ele>
        <time>2017-03-14T09:30:51Z</time>
      </trkpt>
      <trkpt lat="45.46375" lon="5.90409">
        <ele>944.87714</ele>
        <time>2017-03-14T09:31:03Z</time>
      </trkpt>
      <trkpt lat="45.46365" lon="5.90408">
        <ele>944.206</ele>
        <time>2017-03-14T09:31:18Z</time>
      </trkpt>
      <trkpt lat="45.46356" lon="5.90406">
        <ele>945.5562</ele>
        <time>2017-03-14T09:31:27Z</time>
      </trkpt>
      <trkpt lat="45.46346" lon="5.90406">
        <ele>944.9168</ele>
        <time>2017-03-14T09:31:36Z</time>
      </trkpt>
      <trkpt lat="45.46338" lon="5.90412">
        <ele>943.95233</ele>
        <time>2017-03-14T09:31:45Z</time>
      </trkpt>
      <trkpt lat="45.46329" lon="5.90417">
        <ele>944.2853</ele>
        <time>2017-03-14T09:31:54Z</time>
      </trkpt>
      <trkpt lat="45.4632" lon="5.90422">
        <ele>943.68286</ele>
        <time>2017-03-14T09:32:04Z</time>
      </trkpt>
      <trkpt lat="45.46311" lon="5.90418">
        <ele>942.41986</ele>
        <time>2017-03-14T09:32:17Z</time>
      </trkpt>
      <trkpt lat="45.46302" lon="5.90416">
        <ele>942.4595</ele>
        <time>2017-03-14T09:32:28Z</time>
      </trkpt>
      <trkpt lat="45.46291" lon="5.90416">
        <ele>942.25867</ele>
        <time>2017-03-14T09:32:38Z</time>
      </trkpt>
      <trkpt lat="45.46283" lon="5.90408">
        <ele>942.57574</ele>
        <time>2017-03-14T09:32:49Z</time>
      </trkpt>
      <trkpt lat="45.46273" lon="5.90403">
        <ele>942.3643</ele>
        <time>2017-03-14T09:32:59Z</time>
      </trkpt>
      <trkpt lat="45.46272" lon="5.9039">
        <ele>941.9786</ele>
        <time>2017-03-14T09:33:17Z</time>
      </trkpt>
      <trkpt lat="45.46267" lon="5.90379">
        <ele>940.90845</ele>
        <time>2017-03-14T09:33:25Z</time>
      </trkpt>
      <trkpt lat="45.46262" lon="5.90368">
        <ele>941.1806</ele>
        <time>2017-03-14T09:33:33Z</time>
      </trkpt>
      <trkpt lat="45.46256" lon="5.90356">
        <ele>939.5979</ele>
        <time>2017-03-14T09:33:43Z</time>
      </trkpt>
      <trkpt lat="45.46249" lon="5.90348">
        <ele>941.6192</ele>
        <time>2017-03-14T09:33:53Z</time>
      </trkpt>
      <trkpt lat="45.46237" lon="5.90344">
        <ele>940.8054</ele>
        <time>2017-03-14T09:34:03Z</time>
      </trkpt>
      <trkpt lat="45.46231" lon="5.90333">
        <ele>937.5052</ele>
        <time>2017-03-14T09:34:19Z</time>
      </trkpt>
      <trkpt lat="45.46229" lon="5.9032">
        <ele>937.8276</ele>
        <time>2017-03-14T09:34:29Z</time>
      </trkpt>
      <trkpt lat="45.46231" lon="5.90306">
        <ele>937.02167</ele>
        <time>2017-03-14T09:34:38Z</time>
      </trkpt>
      <trkpt lat="45.46231" lon="5.90292">
        <ele>937.92535</ele>
        <time>2017-03-14T09:34:47Z</time>
      </trkpt>
      <trkpt lat="45.4623" lon="5.90279">
        <ele>937.29913</ele>
        <time>2017-03-14T09:34:58Z</time>
      </trkpt>
      <trkpt lat="45.46225" lon="5.90266">
        <ele>936.53284</ele>
        <time>2017-03-14T09:35:09Z</time>
      </trkpt>
      <trkpt lat="45.46216" lon="5.90259">
        <ele>937.5739</ele>
        <time>2017-03-14T09:35:20Z</time>
      </trkpt>
      <trkpt lat="45.46209" lon="5.90251">
        <ele>937.1274</ele>
        <time>2017-03-14T09:35:29Z</time>
      </trkpt>
      <trkpt lat="45.46201" lon="5.90245">
        <ele>936.79706</ele>
        <time>2017-03-14T09:35:39Z</time>
      </trkpt>
      <trkpt lat="45.46192" lon="5.90239">
        <ele>937.84076</ele>
        <time>2017-03-14T09:35:50Z</time>
      </trkpt>
      <trkpt lat="45.46183" lon="5.90233">
        <ele>938.3137</ele>
        <time>2017-03-14T09:36:03Z</time>
      </trkpt>
      <trkpt lat="45.46174" lon="5.90231">
        <ele>938.7999</ele>
        <time>2017-03-14T09:36:13Z</time>
      </trkpt>
      <trkpt lat="45.46165" lon="5.90226">
        <ele>938.8871</ele>
        <time>2017-03-14T09:36:24Z</time>
      </trkpt>
      <trkpt lat="45.46155" lon="5.90222">
        <ele>939.62164</ele>
        <time>2017-03-14T09:36:34Z</time>
      </trkpt>
      <trkpt lat="45.46146" lon="5.90217">
        <ele>940.2162</ele>
        <time>2017-03-14T09:36:45Z</time>
      </trkpt>
      <trkpt lat="45.46137" lon="5.90212">
        <ele>940.2796</ele>
        <time>2017-03-14T09:36:55Z</time>
      </trkpt>
      <trkpt lat="45.46128" lon="5.90208">
        <ele>941.93896</ele>
        <time>2017-03-14T09:37:06Z</time>
      </trkpt>
      <trkpt lat="45.46119" lon="5.90205">
        <ele>941.6007</ele>
        <time>2017-03-14T09:37:18Z</time>
      </trkpt>
      <trkpt lat="45.46111" lon="5.90198">
        <ele>942.3062</ele>
        <time>2017-03-14T09:37:28Z</time>
      </trkpt>
      <trkpt lat="45.46102" lon="5.90193">
        <ele>942.03937</ele>
        <time>2017-03-14T09:37:38Z</time>
      </trkpt>
      <trkpt lat="45.46094" lon="5.90186">
        <ele>943.8414</ele>
        <time>2017-03-14T09:37:49Z</time>
      </trkpt>
      <trkpt lat="45.46085" lon="5.90181">
        <ele>945.1995</ele>
        <time>2017-03-14T09:37:59Z</time>
      </trkpt>
      <trkpt lat="45.46079" lon="5.90171">
        <ele>944.1664</ele>
        <time>2017-03-14T09:38:13Z</time>
      </trkpt>
      <trkpt lat="45.46075" lon="5.9016">
        <ele>945.1916</ele>
        <time>2017-03-14T09:40:20Z</time>
      </trkpt>
      <trkpt lat="45.4607" lon="5.9015">
        <ele>944.80054</ele>
        <time>2017-03-14T09:40:46Z</time>
      </trkpt>
      <trkpt lat="45.46063" lon="5.90141">
        <ele>945.07794</ele>
        <time>2017-03-14T09:40:55Z</time>
      </trkpt>
      <trkpt lat="45.46055" lon="5.90134">
        <ele>945.60645</ele>
        <time>2017-03-14T09:41:05Z</time>
      </trkpt>
      <trkpt lat="45.46046" lon="5.90133">
        <ele>945.8363</ele>
        <time>2017-03-14T09:41:14Z</time>
      </trkpt>
      <trkpt lat="45.46037" lon="5.90129">
        <ele>947.32916</ele>
        <time>2017-03-14T09:41:22Z</time>
      </trkpt>
      <trkpt lat="45.46029" lon="5.90123">
        <ele>945.6989</ele>
        <time>2017-03-14T09:41:31Z</time>
      </trkpt>
      <trkpt lat="45.4602" lon="5.90117">
        <ele>945.6936</ele>
        <time>2017-03-14T09:41:42Z</time>
      </trkpt>
      <trkpt lat="45.46011" lon="5.90113">
        <ele>945.36597</ele>
        <time>2017-03-14T09:41:53Z</time>
      </trkpt>
      <trkpt lat="45.46001" lon="5.90112">
        <ele>947.0438</ele>
        <time>2017-03-14T09:42:03Z</time>
      </trkpt>
      <trkpt lat="45.45998" lon="5.90125">
        <ele>949.583</ele>
        <time>2017-03-14T09:42:24Z</time>
      </trkpt>
      <trkpt lat="45.45978" lon="5.90134">
        <ele>950.95703</ele>
        <time>2017-03-14T09:44:32Z</time>
      </trkpt>
      <trkpt lat="45.45968" lon="5.90135">
        <ele>949.77856</ele>
        <time>2017-03-14T09:44:45Z</time>
      </trkpt>
      <trkpt lat="45.4596" lon="5.90142">
        <ele>948.8406</ele>
        <time>2017-03-14T09:44:51Z</time>
      </trkpt>
      <trkpt lat="45.4595" lon="5.90144">
        <ele>949.09424</ele>
        <time>2017-03-14T09:44:59Z</time>
      </trkpt>
      <trkpt lat="45.45941" lon="5.90145">
        <ele>947.2948</ele>
        <time>2017-03-14T09:45:06Z</time>
      </trkpt>
      <trkpt lat="45.45931" lon="5.90146">
        <ele>947.95276</ele>
        <time>2017-03-14T09:45:11Z</time>
      </trkpt>
      <trkpt lat="45.45922" lon="5.90145">
        <ele>947.6198</ele>
        <time>2017-03-14T09:45:22Z</time>
      </trkpt>
      <trkpt lat="45.45913" lon="5.90144">
        <ele>946.4361</ele>
        <time>2017-03-14T09:45:30Z</time>
      </trkpt>
      <trkpt lat="45.45902" lon="5.90142">
        <ele>947.7387</ele>
        <time>2017-03-14T09:46:02Z</time>
      </trkpt>
      <trkpt lat="45.45894" lon="5.90145">
        <ele>948.12976</ele>
        <time>2017-03-14T09:47:15Z</time>
      </trkpt>
      <trkpt lat="45.45903" lon="5.90141">
        <ele>948.0637</ele>
        <time>2017-03-14T09:47:40Z</time>
      </trkpt>
      <trkpt lat="45.45912" lon="5.90141">
        <ele>948.09015</ele>
        <time>2017-03-14T09:47:49Z</time>
      </trkpt>
      <trkpt lat="45.45925" lon="5.90139">
        <ele>947.50354</ele>
        <time>2017-03-14T09:48:11Z</time>
      </trkpt>
      <trkpt lat="45.45935" lon="5.90141">
        <ele>948.13245</ele>
        <time>2017-03-14T09:48:20Z</time>
      </trkpt>
      <trkpt lat="45.45946" lon="5.90136">
        <ele>948.9436</ele>
        <time>2017-03-14T09:48:35Z</time>
      </trkpt>
      <trkpt lat="45.45955" lon="5.90133">
        <ele>948.8062</ele>
        <time>2017-03-14T09:48:44Z</time>
      </trkpt>
      <trkpt lat="45.45964" lon="5.90132">
        <ele>948.4442</ele>
        <time>2017-03-14T09:48:52Z</time>
      </trkpt>
      <trkpt lat="45.45974" lon="5.90131">
        <ele>950.21454</ele>
        <time>2017-03-14T09:49:01Z</time>
      </trkpt>
      <trkpt lat="45.45984" lon="5.90132">
        <ele>949.6464</ele>
        <time>2017-03-14T09:49:12Z</time>
      </trkpt>
      <trkpt lat="45.45992" lon="5.90126">
        <ele>948.9806</ele>
        <time>2017-03-14T09:49:23Z</time>
      </trkpt>
      <trkpt lat="45.45986" lon="5.90117">
        <ele>948.12976</ele>
        <time>2017-03-14T09:51:06Z</time>
      </trkpt>
      <trkpt lat="45.45977" lon="5.90121">
        <ele>948.8749</ele>
        <time>2017-03-14T09:51:14Z</time>
      </trkpt>
      <trkpt lat="45.45968" lon="5.90125">
        <ele>945.70416</ele>
        <time>2017-03-14T09:51:29Z</time>
      </trkpt>
      <trkpt lat="45.45959" lon="5.90127">
        <ele>945.94727</ele>
        <time>2017-03-14T09:51:39Z</time>
      </trkpt>
      <trkpt lat="45.45949" lon="5.90129">
        <ele>945.07</ele>
        <time>2017-03-14T09:51:46Z</time>
      </trkpt>
      <trkpt lat="45.45939" lon="5.90132">
        <ele>945.8574</ele>
        <time>2017-03-14T09:51:55Z</time>
      </trkpt>
      <trkpt lat="45.45929" lon="5.90133">
        <ele>945.72534</ele>
        <time>2017-03-14T09:52:05Z</time>
      </trkpt>
      <trkpt lat="45.4592" lon="5.90134">
        <ele>946.0979</ele>
        <time>2017-03-14T09:52:18Z</time>
      </trkpt>
      <trkpt lat="45.4591" lon="5.90137">
        <ele>944.72656</ele>
        <time>2017-03-14T09:52:29Z</time>
      </trkpt>
      <trkpt lat="45.45901" lon="5.90135">
        <ele>947.0385</ele>
        <time>2017-03-14T09:52:38Z</time>
      </trkpt>
      <trkpt lat="45.45891" lon="5.90136">
        <ele>945.9605</ele>
        <time>2017-03-14T09:52:52Z</time>
      </trkpt>
      <trkpt lat="45.45881" lon="5.90134">
        <ele>948.645</ele>
        <time>2017-03-14T09:53:01Z</time>
      </trkpt>
      <trkpt lat="45.45873" lon="5.90127">
        <ele>949.768</ele>
        <time>2017-03-14T09:53:17Z</time>
      </trkpt>
      <trkpt lat="45.45863" lon="5.90125">
        <ele>951.0363</ele>
        <time>2017-03-14T09:53:25Z</time>
      </trkpt>
      <trkpt lat="45.45854" lon="5.90122">
        <ele>952.1249</ele>
        <time>2017-03-14T09:53:36Z</time>
      </trkpt>
      <trkpt lat="45.45845" lon="5.90118">
        <ele>951.2133</ele>
        <time>2017-03-14T09:53:45Z</time>
      </trkpt>
      <trkpt lat="45.45834" lon="5.9012">
        <ele>953.3351</ele>
        <time>2017-03-14T09:53:53Z</time>
      </trkpt>
      <trkpt lat="45.45826" lon="5.90114">
        <ele>954.0776</ele>
        <time>2017-03-14T09:54:06Z</time>
      </trkpt>
      <trkpt lat="45.45816" lon="5.90122">
        <ele>952.1328</ele>
        <time>2017-03-14T09:54:26Z</time>
      </trkpt>
      <trkpt lat="45.45815" lon="5.90126">
        <ele>952.26495</ele>
        <time>2017-03-14T09:56:03Z</time>
      </trkpt>
      <trkpt lat="45.45816" lon="5.90143">
        <ele>951.4564</ele>
        <time>2017-03-14T09:56:08Z</time>
      </trkpt>
      <trkpt lat="45.45815" lon="5.90157">
        <ele>951.3428</ele>
        <time>2017-03-14T09:56:12Z</time>
      </trkpt>
      <trkpt lat="45.45821" lon="5.90168">
        <ele>951.5753</ele>
        <time>2017-03-14T09:56:19Z</time>
      </trkpt>
      <trkpt lat="45.45822" lon="5.90182">
        <ele>950.0296</ele>
        <time>2017-03-14T09:56:26Z</time>
      </trkpt>
      <trkpt lat="45.45823" lon="5.90196">
        <ele>948.3993</ele>
        <time>2017-03-14T09:56:42Z</time>
      </trkpt>
      <trkpt lat="45.45816" lon="5.90206">
        <ele>947.5168</ele>
        <time>2017-03-14T09:56:48Z</time>
      </trkpt>
      <trkpt lat="45.45816" lon="5.9022">
        <ele>948.4627</ele>
        <time>2017-03-14T09:56:58Z</time>
      </trkpt>
      <trkpt lat="45.45824" lon="5.90225">
        <ele>947.9448</ele>
        <time>2017-03-14T09:57:04Z</time>
      </trkpt>
      <trkpt lat="45.45832" lon="5.90233">
        <ele>950.2092</ele>
        <time>2017-03-14T09:57:14Z</time>
      </trkpt>
      <trkpt lat="45.45823" lon="5.90243">
        <ele>950.21985</ele>
        <time>2017-03-14T09:57:21Z</time>
      </trkpt>
      <trkpt lat="45.45807" lon="5.90259">
        <ele>957.1849</ele>
        <time>2017-03-14T09:59:51Z</time>
      </trkpt>
      <trkpt lat="45.45798" lon="5.90259">
        <ele>956.4635</ele>
        <time>2017-03-14T09:59:53Z</time>
      </trkpt>
      <trkpt lat="45.45791" lon="5.90249">
        <ele>960.36615</ele>
        <time>2017-03-14T10:00:18Z</time>
      </trkpt>
      <trkpt lat="45.45791" lon="5.90248">
        <ele>960.16797</ele>
        <time>2017-03-14T10:00:19Z</time>
      </trkpt>
      <trkpt lat="45.4577" lon="5.90243">
        <ele>969.9893</ele>
        <time>2017-03-14T10:01:23Z</time>
      </trkpt>
      <trkpt lat="45.4577" lon="5.90242">
        <ele>969.57446</ele>
        <time>2017-03-14T10:01:24Z</time>
      </trkpt>
      <trkpt lat="45.45763" lon="5.90233">
        <ele>973.2816</ele>
        <time>2017-03-14T10:01:50Z</time>
      </trkpt>
      <trkpt lat="45.4576" lon="5.90232">
        <ele>974.26715</ele>
        <time>2017-03-14T10:01:51Z</time>
      </trkpt>
      <trkpt lat="45.45758" lon="5.90232">
        <ele>973.0729</ele>
        <time>2017-03-14T10:01:52Z</time>
      </trkpt>
      <trkpt lat="45.4575" lon="5.90226">
        <ele>978.74316</ele>
        <time>2017-03-14T10:02:30Z</time>
      </trkpt>
      <trkpt lat="45.4575" lon="5.90223">
        <ele>980.2519</ele>
        <time>2017-03-14T10:02:31Z</time>
      </trkpt>
      <trkpt lat="45.45749" lon="5.90222">
        <ele>979.5966</ele>
        <time>2017-03-14T10:02:32Z</time>
      </trkpt>
      <trkpt lat="45.4574" lon="5.90217">
        <ele>981.2005</ele>
        <time>2017-03-14T10:02:46Z</time>
      </trkpt>
      <trkpt lat="45.45733" lon="5.90218">
        <ele>982.16754</ele>
        <time>2017-03-14T10:03:09Z</time>
      </trkpt>
      <trkpt lat="45.45732" lon="5.90218">
        <ele>981.95355</ele>
        <time>2017-03-14T10:03:10Z</time>
      </trkpt>
      <trkpt lat="45.45732" lon="5.9021">
        <ele>981.4383</ele>
        <time>2017-03-14T10:03:56Z</time>
      </trkpt>
      <trkpt lat="45.45723" lon="5.90205">
        <ele>981.22424</ele>
        <time>2017-03-14T10:04:16Z</time>
      </trkpt>
      <trkpt lat="45.45723" lon="5.90205">
        <ele>980.7989</ele>
        <time>2017-03-14T10:04:17Z</time>
      </trkpt>
      <trkpt lat="45.45712" lon="5.90204">
        <ele>982.47406</ele>
        <time>2017-03-14T10:04:38Z</time>
      </trkpt>
      <trkpt lat="45.4571" lon="5.90205">
        <ele>982.445</ele>
        <time>2017-03-14T10:04:39Z</time>
      </trkpt>
      <trkpt lat="45.45701" lon="5.90195">
        <ele>986.7572</ele>
        <time>2017-03-14T10:05:10Z</time>
      </trkpt>
      <trkpt lat="45.457" lon="5.90195">
        <ele>987.22485</ele>
        <time>2017-03-14T10:05:11Z</time>
      </trkpt>
      <trkpt lat="45.45699" lon="5.90195">
        <ele>986.62244</ele>
        <time>2017-03-14T10:05:12Z</time>
      </trkpt>
      <trkpt lat="45.45685" lon="5.90192">
        <ele>993.894</ele>
        <time>2017-03-14T10:06:14Z</time>
      </trkpt>
      <trkpt lat="45.45685" lon="5.90192">
        <ele>993.894</ele>
        <time>2017-03-14T10:06:14Z</time>
      </trkpt>
      <trkpt lat="45.45673" lon="5.90196">
        <ele>993.78033</ele>
        <time>2017-03-14T10:06:19Z</time>
      </trkpt>
      <trkpt lat="45.45671" lon="5.90197">
        <ele>994.02606</ele>
        <time>2017-03-14T10:06:20Z</time>
      </trkpt>
      <trkpt lat="45.45657" lon="5.90194">
        <ele>1000.3279</ele>
        <time>2017-03-14T10:07:03Z</time>
      </trkpt>
      <trkpt lat="45.45658" lon="5.90195">
        <ele>999.3318</ele>
        <time>2017-03-14T10:07:04Z</time>
      </trkpt>
      <trkpt lat="45.45649" lon="5.90189">
        <ele>1001.7151</ele>
        <time>2017-03-14T10:07:13Z</time>
      </trkpt>
      <trkpt lat="45.45648" lon="5.90188">
        <ele>1001.9159</ele>
        <time>2017-03-14T10:07:14Z</time>
      </trkpt>
      <trkpt lat="45.45645" lon="5.90189">
        <ele>1001.945</ele>
        <time>2017-03-14T10:07:15Z</time>
      </trkpt>
      <trkpt lat="45.45644" lon="5.90188">
        <ele>1002.3043</ele>
        <time>2017-03-14T10:07:16Z</time>
      </trkpt>
      <trkpt lat="45.45643" lon="5.90187">
        <ele>1001.8948</ele>
        <time>2017-03-14T10:07:17Z</time>
      </trkpt>
      <trkpt lat="45.45632" lon="5.9019">
        <ele>1005.372</ele>
        <time>2017-03-14T10:07:50Z</time>
      </trkpt>
      <trkpt lat="45.45629" lon="5.9019">
        <ele>1005.44073</ele>
        <time>2017-03-14T10:07:51Z</time>
      </trkpt>
      <trkpt lat="45.4562" lon="5.90187">
        <ele>1006.00616</ele>
        <time>2017-03-14T10:07:58Z</time>
      </trkpt>
      <trkpt lat="45.45619" lon="5.90186">
        <ele>1004.9519</ele>
        <time>2017-03-14T10:07:59Z</time>
      </trkpt>
      <trkpt lat="45.45605" lon="5.90179">
        <ele>1006.1462</ele>
        <time>2017-03-14T10:08:08Z</time>
      </trkpt>
      <trkpt lat="45.45606" lon="5.90181">
        <ele>1005.90576</ele>
        <time>2017-03-14T10:08:09Z</time>
      </trkpt>
      <trkpt lat="45.45597" lon="5.9018">
        <ele>1006.3761</ele>
        <time>2017-03-14T10:08:24Z</time>
      </trkpt>
      <trkpt lat="45.45596" lon="5.90179">
        <ele>1006.06165</ele>
        <time>2017-03-14T10:08:25Z</time>
      </trkpt>
      <trkpt lat="45.4558" lon="5.9018">
        <ele>1009.7793</ele>
        <time>2017-03-14T10:10:34Z</time>
      </trkpt>
      <trkpt lat="45.45578" lon="5.90182">
        <ele>1010.1228</ele>
        <time>2017-03-14T10:10:35Z</time>
      </trkpt>
      <trkpt lat="45.45577" lon="5.90182">
        <ele>1010.3342</ele>
        <time>2017-03-14T10:10:36Z</time>
      </trkpt>
      <trkpt lat="45.45577" lon="5.90182">
        <ele>1010.3236</ele>
        <time>2017-03-14T10:10:37Z</time>
      </trkpt>
      <trkpt lat="45.45582" lon="5.90174">
        <ele>1008.7013</ele>
        <time>2017-03-14T10:11:10Z</time>
      </trkpt>
      <trkpt lat="45.45555" lon="5.90178">
        <ele>1007.71045</ele>
        <time>2017-03-14T10:15:05Z</time>
      </trkpt>
      <trkpt lat="45.45549" lon="5.90182">
        <ele>1007.7527</ele>
        <time>2017-03-14T10:15:27Z</time>
      </trkpt>
      <trkpt lat="45.45539" lon="5.9018">
        <ele>1008.5375</ele>
        <time>2017-03-14T10:15:51Z</time>
      </trkpt>
      <trkpt lat="45.45531" lon="5.90186">
        <ele>1007.6946</ele>
        <time>2017-03-14T10:15:56Z</time>
      </trkpt>
      <trkpt lat="45.45515" lon="5.90183">
        <ele>1010.03827</ele>
        <time>2017-03-14T10:16:33Z</time>
      </trkpt>
      <trkpt lat="45.45506" lon="5.90178">
        <ele>1008.5216</ele>
        <time>2017-03-14T10:16:43Z</time>
      </trkpt>
      <trkpt lat="45.45495" lon="5.90175">
        <ele>1007.5228</ele>
        <time>2017-03-14T10:17:05Z</time>
      </trkpt>
      <trkpt lat="45.45485" lon="5.90168">
        <ele>1008.69336</ele>
        <time>2017-03-14T10:17:15Z</time>
      </trkpt>
      <trkpt lat="45.45475" lon="5.90166">
        <ele>1007.7897</ele>
        <time>2017-03-14T10:17:24Z</time>
      </trkpt>
      <trkpt lat="45.45466" lon="5.90163">
        <ele>1008.5005</ele>
        <time>2017-03-14T10:17:34Z</time>
      </trkpt>
      <trkpt lat="45.45455" lon="5.90157">
        <ele>1010.19415</ele>
        <time>2017-03-14T10:17:51Z</time>
      </trkpt>
      <trkpt lat="45.45454" lon="5.90157">
        <ele>1011.63153</ele>
        <time>2017-03-14T10:17:52Z</time>
      </trkpt>
      <trkpt lat="45.45451" lon="5.90157">
        <ele>1010.11224</ele>
        <time>2017-03-14T10:17:53Z</time>
      </trkpt>
      <trkpt lat="45.45441" lon="5.90153">
        <ele>1010.77545</ele>
        <time>2017-03-14T10:18:03Z</time>
      </trkpt>
      <trkpt lat="45.45432" lon="5.90157">
        <ele>1010.9393</ele>
        <time>2017-03-14T10:18:11Z</time>
      </trkpt>
      <trkpt lat="45.45423" lon="5.90158">
        <ele>1012.66205</ele>
        <time>2017-03-14T10:18:22Z</time>
      </trkpt>
      <trkpt lat="45.45422" lon="5.9016">
        <ele>1011.9777</ele>
        <time>2017-03-14T10:18:23Z</time>
      </trkpt>
      <trkpt lat="45.45412" lon="5.90154">
        <ele>1013.7797</ele>
        <time>2017-03-14T10:20:00Z</time>
      </trkpt>
      <trkpt lat="45.45415" lon="5.90157">
        <ele>1013.6661</ele>
        <time>2017-03-14T10:20:37Z</time>
      </trkpt>
      <trkpt lat="45.45413" lon="5.90152">
        <ele>1013.4177</ele>
        <time>2017-03-14T10:27:06Z</time>
      </trkpt>
      <trkpt lat="45.45416" lon="5.9014">
        <ele>1011.95917</ele>
        <time>2017-03-14T10:27:28Z</time>
      </trkpt>
      <trkpt lat="45.45412" lon="5.90134">
        <ele>1011.7663</ele>
        <time>2017-03-14T10:28:02Z</time>
      </trkpt>
      <trkpt lat="45.45403" lon="5.90133">
        <ele>1010.79926</ele>
        <time>2017-03-14T10:28:09Z</time>
      </trkpt>
      <trkpt lat="45.45393" lon="5.90135">
        <ele>1010.6592</ele>
        <time>2017-03-14T10:28:14Z</time>
      </trkpt>
      <trkpt lat="45.45392" lon="5.90134">
        <ele>1010.54297</ele>
        <time>2017-03-14T10:28:56Z</time>
      </trkpt>
      <trkpt lat="45.45381" lon="5.90124">
        <ele>1007.04987</ele>
        <time>2017-03-14T10:29:26Z</time>
      </trkpt>
      <trkpt lat="45.45372" lon="5.90118">
        <ele>1005.4354</ele>
        <time>2017-03-14T10:29:40Z</time>
      </trkpt>
      <trkpt lat="45.45365" lon="5.9011">
        <ele>1005.5332</ele>
        <time>2017-03-14T10:29:54Z</time>
      </trkpt>
      <trkpt lat="45.45355" lon="5.90105">
        <ele>1006.82526</ele>
        <time>2017-03-14T10:30:09Z</time>
      </trkpt>
      <trkpt lat="45.45345" lon="5.90105">
        <ele>1006.7698</ele>
        <time>2017-03-14T10:30:16Z</time>
      </trkpt>
      <trkpt lat="45.45336" lon="5.90104">
        <ele>1010.19415</ele>
        <time>2017-03-14T10:30:33Z</time>
      </trkpt>
      <trkpt lat="45.45326" lon="5.90093">
        <ele>1011.11896</ele>
        <time>2017-03-14T10:31:12Z</time>
      </trkpt>
      <trkpt lat="45.45322" lon="5.90079">
        <ele>1011.7637</ele>
        <time>2017-03-14T10:31:46Z</time>
      </trkpt>
      <trkpt lat="45.45322" lon="5.90066">
        <ele>1011.9143</ele>
        <time>2017-03-14T10:32:06Z</time>
      </trkpt>
      <trkpt lat="45.45316" lon="5.90055">
        <ele>1012.23926</ele>
        <time>2017-03-14T10:32:15Z</time>
      </trkpt>
      <trkpt lat="45.45313" lon="5.90046">
        <ele>1012.25775</ele>
        <time>2017-03-14T10:32:55Z</time>
      </trkpt>
      <trkpt lat="45.45307" lon="5.90035">
        <ele>1012.17584</ele>
        <time>2017-03-14T10:33:08Z</time>
      </trkpt>
      <trkpt lat="45.45299" lon="5.90027">
        <ele>1012.22345</ele>
        <time>2017-03-14T10:33:18Z</time>
      </trkpt>
      <trkpt lat="45.45295" lon="5.90015">
        <ele>1012.3925</ele>
        <time>2017-03-14T10:33:28Z</time>
      </trkpt>
      <trkpt lat="45.45287" lon="5.90006">
        <ele>1010.4663</ele>
        <time>2017-03-14T10:33:37Z</time>
      </trkpt>
      <trkpt lat="45.4528" lon="5.89995">
        <ele>1010.59845</ele>
        <time>2017-03-14T10:33:46Z</time>
      </trkpt>
      <trkpt lat="45.45275" lon="5.89983">
        <ele>1009.41205</ele>
        <time>2017-03-14T10:34:03Z</time>
      </trkpt>
      <trkpt lat="45.45264" lon="5.89972">
        <ele>1007.5704</ele>
        <time>2017-03-14T10:34:40Z</time>
      </trkpt>
      <trkpt lat="45.45255" lon="5.89966">
        <ele>1007.7606</ele>
        <time>2017-03-14T10:34:46Z</time>
      </trkpt>
      <trkpt lat="45.45251" lon="5.89958">
        <ele>1008.1147</ele>
        <time>2017-03-14T10:35:37Z</time>
      </trkpt>
      <trkpt lat="45.45242" lon="5.89946">
        <ele>1008.0037</ele>
        <time>2017-03-14T10:35:40Z</time>
      </trkpt>
      <trkpt lat="45.45234" lon="5.89937">
        <ele>1007.74475</ele>
        <time>2017-03-14T10:35:44Z</time>
      </trkpt>
      <trkpt lat="45.45228" lon="5.89926">
        <ele>1008.31024</ele>
        <time>2017-03-14T10:35:54Z</time>
      </trkpt>
      <trkpt lat="45.45222" lon="5.89915">
        <ele>1008.8598</ele>
        <time>2017-03-14T10:36:02Z</time>
      </trkpt>
      <trkpt lat="45.45215" lon="5.89904">
        <ele>1008.3525</ele>
        <time>2017-03-14T10:36:12Z</time>
      </trkpt>
      <trkpt lat="45.4521" lon="5.89893">
        <ele>1007.84784</ele>
        <time>2017-03-14T10:36:24Z</time>
      </trkpt>
      <trkpt lat="45.45205" lon="5.8988">
        <ele>1008.7198</ele>
        <time>2017-03-14T10:36:29Z</time>
      </trkpt>
      <trkpt lat="45.45198" lon="5.89871">
        <ele>1008.76733</ele>
        <time>2017-03-14T10:36:38Z</time>
      </trkpt>
      <trkpt lat="45.45196" lon="5.89852">
        <ele>1010.7411</ele>
        <time>2017-03-14T10:37:16Z</time>
      </trkpt>
      <trkpt lat="45.45187" lon="5.89845">
        <ele>1011.0159</ele>
        <time>2017-03-14T10:37:20Z</time>
      </trkpt>
      <trkpt lat="45.45182" lon="5.89833">
        <ele>1010.934</ele>
        <time>2017-03-14T10:37:26Z</time>
      </trkpt>
      <trkpt lat="45.45175" lon="5.89822">
        <ele>1012.4744</ele>
        <time>2017-03-14T10:37:40Z</time>
      </trkpt>
      <trkpt lat="45.45173" lon="5.89808">
        <ele>1012.0887</ele>
        <time>2017-03-14T10:38:16Z</time>
      </trkpt>
      <trkpt lat="45.45165" lon="5.898">
        <ele>1011.69763</ele>
        <time>2017-03-14T10:38:19Z</time>
      </trkpt>
      <trkpt lat="45.45158" lon="5.89791">
        <ele>1010.73584</ele>
        <time>2017-03-14T10:38:22Z</time>
      </trkpt>
      <trkpt lat="45.4515" lon="5.89781">
        <ele>1011.8482</ele>
        <time>2017-03-14T10:38:26Z</time>
      </trkpt>
      <trkpt lat="45.45144" lon="5.89765">
        <ele>1008.4952</ele>
        <time>2017-03-14T10:38:51Z</time>
      </trkpt>
      <trkpt lat="45.45135" lon="5.89761">
        <ele>1007.6021</ele>
        <time>2017-03-14T10:39:13Z</time>
      </trkpt>
      <trkpt lat="45.45129" lon="5.8975">
        <ele>1004.5714</ele>
        <time>2017-03-14T10:39:34Z</time>
      </trkpt>
      <trkpt lat="45.45119" lon="5.89736">
        <ele>1002.1088</ele>
        <time>2017-03-14T10:39:47Z</time>
      </trkpt>
      <trkpt lat="45.45115" lon="5.89722">
        <ele>1001.4456</ele>
        <time>2017-03-14T10:39:52Z</time>
      </trkpt>
      <trkpt lat="45.45114" lon="5.89708">
        <ele>1001.50903</ele>
        <time>2017-03-14T10:40:01Z</time>
      </trkpt>
      <trkpt lat="45.45116" lon="5.89694">
        <ele>999.5881</ele>
        <time>2017-03-14T10:40:11Z</time>
      </trkpt>
      <trkpt lat="45.4512" lon="5.89681">
        <ele>996.53094</ele>
        <time>2017-03-14T10:40:25Z</time>
      </trkpt>
      <trkpt lat="45.45125" lon="5.89668">
        <ele>996.8058</ele>
        <time>2017-03-14T10:40:43Z</time>
      </trkpt>
      <trkpt lat="45.45129" lon="5.89656">
        <ele>996.51776</ele>
        <time>2017-03-14T10:41:01Z</time>
      </trkpt>
      <trkpt lat="45.45138" lon="5.89645">
        <ele>994.62854</ele>
        <time>2017-03-14T10:41:16Z</time>
      </trkpt>
      <trkpt lat="45.45146" lon="5.89638">
        <ele>996.1478</ele>
        <time>2017-03-14T10:41:23Z</time>
      </trkpt>
      <trkpt lat="45.45152" lon="5.89613">
        <ele>996.383</ele>
        <time>2017-03-14T10:43:20Z</time>
      </trkpt>
      <trkpt lat="45.45155" lon="5.89608">
        <ele>995.89154</ele>
        <time>2017-03-14T10:44:38Z</time>
      </trkpt>
      <trkpt lat="45.45152" lon="5.8961">
        <ele>994.73157</ele>
        <time>2017-03-14T10:46:03Z</time>
      </trkpt>
      <trkpt lat="45.45154" lon="5.89609">
        <ele>994.4568</ele>
        <time>2017-03-14T10:46:47Z</time>
      </trkpt>
      <trkpt lat="45.45144" lon="5.89609">
        <ele>993.68787</ele>
        <time>2017-03-14T10:47:47Z</time>
      </trkpt>
      <trkpt lat="45.4513" lon="5.89609">
        <ele>992.6098</ele>
        <time>2017-03-14T10:47:54Z</time>
      </trkpt>
      <trkpt lat="45.4512" lon="5.8961">
        <ele>991.8013</ele>
        <time>2017-03-14T10:48:08Z</time>
      </trkpt>
      <trkpt lat="45.45109" lon="5.89613">
        <ele>991.3151</ele>
        <time>2017-03-14T10:48:17Z</time>
      </trkpt>
      <trkpt lat="45.45101" lon="5.89619">
        <ele>989.6875</ele>
        <time>2017-03-14T10:48:33Z</time>
      </trkpt>
      <trkpt lat="45.45091" lon="5.89625">
        <ele>987.8801</ele>
        <time>2017-03-14T10:48:44Z</time>
      </trkpt>
      <trkpt lat="45.45087" lon="5.89637">
        <ele>986.34235</ele>
        <time>2017-03-14T10:48:55Z</time>
      </trkpt>
      <trkpt lat="45.45083" lon="5.8965">
        <ele>985.31976</ele>
        <time>2017-03-14T10:49:02Z</time>
      </trkpt>
      <trkpt lat="45.45079" lon="5.89662">
        <ele>983.7688</ele>
        <time>2017-03-14T10:49:14Z</time>
      </trkpt>
      <trkpt lat="45.45071" lon="5.89666">
        <ele>983.65515</ele>
        <time>2017-03-14T10:49:24Z</time>
      </trkpt>
      <trkpt lat="45.45065" lon="5.89677">
        <ele>981.0842</ele>
        <time>2017-03-14T10:49:31Z</time>
      </trkpt>
      <trkpt lat="45.45055" lon="5.89676">
        <ele>980.1198</ele>
        <time>2017-03-14T10:50:26Z</time>
      </trkpt>
      <trkpt lat="45.45046" lon="5.89678">
        <ele>980.18585</ele>
        <time>2017-03-14T10:50:30Z</time>
      </trkpt>
      <trkpt lat="45.45036" lon="5.89682">
        <ele>978.88055</ele>
        <time>2017-03-14T10:50:36Z</time>
      </trkpt>
      <trkpt lat="45.45026" lon="5.89686">
        <ele>977.0468</ele>
        <time>2017-03-14T10:50:43Z</time>
      </trkpt>
      <trkpt lat="45.45015" lon="5.89687">
        <ele>976.49457</ele>
        <time>2017-03-14T10:50:54Z</time>
      </trkpt>
      <trkpt lat="45.45005" lon="5.89686">
        <ele>976.35986</ele>
        <time>2017-03-14T10:50:59Z</time>
      </trkpt>
      <trkpt lat="45.44996" lon="5.89687">
        <ele>974.2777</ele>
        <time>2017-03-14T10:51:07Z</time>
      </trkpt>
      <trkpt lat="45.44983" lon="5.89694">
        <ele>969.2204</ele>
        <time>2017-03-14T10:51:38Z</time>
      </trkpt>
      <trkpt lat="45.44972" lon="5.89697">
        <ele>968.6576</ele>
        <time>2017-03-14T10:51:41Z</time>
      </trkpt>
      <trkpt lat="45.44964" lon="5.89702">
        <ele>967.9786</ele>
        <time>2017-03-14T10:51:48Z</time>
      </trkpt>
      <trkpt lat="45.44954" lon="5.89707">
        <ele>969.21246</ele>
        <time>2017-03-14T10:51:51Z</time>
      </trkpt>
      <trkpt lat="45.44943" lon="5.89712">
        <ele>963.05865</ele>
        <time>2017-03-14T10:52:32Z</time>
      </trkpt>
      <trkpt lat="45.44933" lon="5.89719">
        <ele>960.40576</ele>
        <time>2017-03-14T10:52:36Z</time>
      </trkpt>
      <trkpt lat="45.44922" lon="5.8972">
        <ele>960.26044</ele>
        <time>2017-03-14T10:52:43Z</time>
      </trkpt>
      <trkpt lat="45.44912" lon="5.89726">
        <ele>958.65924</ele>
        <time>2017-03-14T10:53:06Z</time>
      </trkpt>
      <trkpt lat="45.449" lon="5.89733">
        <ele>956.046</ele>
        <time>2017-03-14T10:53:18Z</time>
      </trkpt>
      <trkpt lat="45.44878" lon="5.89735">
        <ele>952.64014</ele>
        <time>2017-03-14T10:53:48Z</time>
      </trkpt>
      <trkpt lat="45.44871" lon="5.89726">
        <ele>951.68365</ele>
        <time>2017-03-14T10:53:50Z</time>
      </trkpt>
      <trkpt lat="45.44865" lon="5.8974">
        <ele>950.84607</ele>
        <time>2017-03-14T10:53:52Z</time>
      </trkpt>
      <trkpt lat="45.44842" lon="5.89734">
        <ele>950.5924</ele>
        <time>2017-03-14T10:54:39Z</time>
      </trkpt>
      <trkpt lat="45.44833" lon="5.89731">
        <ele>950.2436</ele>
        <time>2017-03-14T10:54:43Z</time>
      </trkpt>
      <trkpt lat="45.44822" lon="5.89727">
        <ele>950.01904</ele>
        <time>2017-03-14T10:54:53Z</time>
      </trkpt>
      <trkpt lat="45.44813" lon="5.89723">
        <ele>949.15765</ele>
        <time>2017-03-14T10:54:57Z</time>
      </trkpt>
      <trkpt lat="45.4481" lon="5.89736">
        <ele>948.62915</ele>
        <time>2017-03-14T10:55:02Z</time>
      </trkpt>
      <trkpt lat="45.44801" lon="5.89733">
        <ele>950.6373</ele>
        <time>2017-03-14T10:55:18Z</time>
      </trkpt>
      <trkpt lat="45.44797" lon="5.89746">
        <ele>949.0044</ele>
        <time>2017-03-14T10:55:23Z</time>
      </trkpt>
      <trkpt lat="45.44789" lon="5.89738">
        <ele>949.31354</ele>
        <time>2017-03-14T10:55:27Z</time>
      </trkpt>
      <trkpt lat="45.4478" lon="5.89736">
        <ele>949.8076</ele>
        <time>2017-03-14T10:55:31Z</time>
      </trkpt>
      <trkpt lat="45.4477" lon="5.89727">
        <ele>946.62634</ele>
        <time>2017-03-14T10:56:06Z</time>
      </trkpt>
      <trkpt lat="45.44752" lon="5.89732">
        <ele>944.5521</ele>
        <time>2017-03-14T10:56:23Z</time>
      </trkpt>
      <trkpt lat="45.44742" lon="5.89736">
        <ele>945.04626</ele>
        <time>2017-03-14T10:56:26Z</time>
      </trkpt>
      <trkpt lat="45.44731" lon="5.89735">
        <ele>946.2538</ele>
        <time>2017-03-14T10:56:29Z</time>
      </trkpt>
      <trkpt lat="45.44722" lon="5.89736">
        <ele>946.22473</ele>
        <time>2017-03-14T10:56:31Z</time>
      </trkpt>
      <trkpt lat="45.44713" lon="5.89741">
        <ele>943.7621</ele>
        <time>2017-03-14T10:56:37Z</time>
      </trkpt>
      <trkpt lat="45.44702" lon="5.89739">
        <ele>941.44745</ele>
        <time>2017-03-14T10:57:07Z</time>
      </trkpt>
      <trkpt lat="45.44694" lon="5.89734">
        <ele>940.7235</ele>
        <time>2017-03-14T10:57:11Z</time>
      </trkpt>
      <trkpt lat="45.44684" lon="5.89731">
        <ele>938.64404</ele>
        <time>2017-03-14T10:57:17Z</time>
      </trkpt>
      <trkpt lat="45.4467" lon="5.89737">
        <ele>936.2845</ele>
        <time>2017-03-14T10:57:27Z</time>
      </trkpt>
      <trkpt lat="45.44661" lon="5.8973">
        <ele>938.30316</ele>
        <time>2017-03-14T10:57:29Z</time>
      </trkpt>
      <trkpt lat="45.44652" lon="5.8974">
        <ele>937.4101</ele>
        <time>2017-03-14T10:57:32Z</time>
      </trkpt>
      <trkpt lat="45.44643" lon="5.89736">
        <ele>936.7363</ele>
        <time>2017-03-14T10:57:37Z</time>
      </trkpt>
      <trkpt lat="45.44634" lon="5.89732">
        <ele>931.7054</ele>
        <time>2017-03-14T10:58:01Z</time>
      </trkpt>
      <trkpt lat="45.44626" lon="5.89726">
        <ele>930.6062</ele>
        <time>2017-03-14T10:58:10Z</time>
      </trkpt>
      <trkpt lat="45.44621" lon="5.89715">
        <ele>929.49646</ele>
        <time>2017-03-14T10:58:19Z</time>
      </trkpt>
      <trkpt lat="45.44613" lon="5.89708">
        <ele>927.67596</ele>
        <time>2017-03-14T10:58:28Z</time>
      </trkpt>
      <trkpt lat="45.44605" lon="5.89704">
        <ele>926.10114</ele>
        <time>2017-03-14T10:58:38Z</time>
      </trkpt>
      <trkpt lat="45.44596" lon="5.897">
        <ele>925.10236</ele>
        <time>2017-03-14T10:58:47Z</time>
      </trkpt>
      <trkpt lat="45.44587" lon="5.89699">
        <ele>923.4166</ele>
        <time>2017-03-14T10:58:57Z</time>
      </trkpt>
      <trkpt lat="45.44578" lon="5.89702">
        <ele>923.4642</ele>
        <time>2017-03-14T10:59:06Z</time>
      </trkpt>
      <trkpt lat="45.44583" lon="5.89691">
        <ele>922.9357</ele>
        <time>2017-03-14T10:59:52Z</time>
      </trkpt>
      <trkpt lat="45.44588" lon="5.89679">
        <ele>922.91724</ele>
        <time>2017-03-14T11:00:20Z</time>
      </trkpt>
      <trkpt lat="45.44595" lon="5.89671">
        <ele>921.9845</ele>
        <time>2017-03-14T11:00:33Z</time>
      </trkpt>
      <trkpt lat="45.44602" lon="5.89662">
        <ele>921.6357</ele>
        <time>2017-03-14T11:00:44Z</time>
      </trkpt>
      <trkpt lat="45.4461" lon="5.89654">
        <ele>919.0146</ele>
        <time>2017-03-14T11:00:56Z</time>
      </trkpt>
      <trkpt lat="45.44618" lon="5.89646">
        <ele>920.34625</ele>
        <time>2017-03-14T11:01:10Z</time>
      </trkpt>
      <trkpt lat="45.44624" lon="5.89637">
        <ele>917.9524</ele>
        <time>2017-03-14T11:01:22Z</time>
      </trkpt>
      <trkpt lat="45.44631" lon="5.89627">
        <ele>917.16235</ele>
        <time>2017-03-14T11:01:35Z</time>
      </trkpt>
      <trkpt lat="45.44638" lon="5.89619">
        <ele>916.47797</ele>
        <time>2017-03-14T11:01:48Z</time>
      </trkpt>
      <trkpt lat="45.44647" lon="5.89615">
        <ele>915.87024</ele>
        <time>2017-03-14T11:01:57Z</time>
      </trkpt>
      <trkpt lat="45.44652" lon="5.89602">
        <ele>914.09467</ele>
        <time>2017-03-14T11:02:07Z</time>
      </trkpt>
      <trkpt lat="45.4466" lon="5.89595">
        <ele>913.3971</ele>
        <time>2017-03-14T11:02:18Z</time>
      </trkpt>
      <trkpt lat="45.44669" lon="5.89592">
        <ele>913.00073</ele>
        <time>2017-03-14T11:02:27Z</time>
      </trkpt>
      <trkpt lat="45.44679" lon="5.8959">
        <ele>911.32294</ele>
        <time>2017-03-14T11:03:09Z</time>
      </trkpt>
      <trkpt lat="45.44685" lon="5.89595">
        <ele>910.8499</ele>
        <time>2017-03-14T11:03:43Z</time>
      </trkpt>
      <trkpt lat="45.44694" lon="5.896">
        <ele>909.6477</ele>
        <time>2017-03-14T11:03:55Z</time>
      </trkpt>
      <trkpt lat="45.44703" lon="5.89596">
        <ele>908.73615</ele>
        <time>2017-03-14T11:04:08Z</time>
      </trkpt>
      <trkpt lat="45.44712" lon="5.89593">
        <ele>908.17065</ele>
        <time>2017-03-14T11:04:19Z</time>
      </trkpt>
      <trkpt lat="45.44721" lon="5.89588">
        <ele>907.2855</ele>
        <time>2017-03-14T11:04:33Z</time>
      </trkpt>
      <trkpt lat="45.44729" lon="5.89582">
        <ele>905.62354</ele>
        <time>2017-03-14T11:04:45Z</time>
      </trkpt>
      <trkpt lat="45.44738" lon="5.89578">
        <ele>904.6142</ele>
        <time>2017-03-14T11:04:58Z</time>
      </trkpt>
      <trkpt lat="45.44745" lon="5.8957">
        <ele>903.7713</ele>
        <time>2017-03-14T11:05:07Z</time>
      </trkpt>
      <trkpt lat="45.44756" lon="5.8957">
        <ele>902.08026</ele>
        <time>2017-03-14T11:05:20Z</time>
      </trkpt>
      <trkpt lat="45.44764" lon="5.89564">
        <ele>902.0776</ele>
        <time>2017-03-14T11:05:28Z</time>
      </trkpt>
      <trkpt lat="45.44774" lon="5.89562">
        <ele>899.9347</ele>
        <time>2017-03-14T11:05:39Z</time>
      </trkpt>
      <trkpt lat="45.44781" lon="5.89554">
        <ele>899.75507</ele>
        <time>2017-03-14T11:05:50Z</time>
      </trkpt>
      <trkpt lat="45.4479" lon="5.89554">
        <ele>898.10364</ele>
        <time>2017-03-14T11:06:00Z</time>
      </trkpt>
      <trkpt lat="45.44799" lon="5.89549">
        <ele>898.10626</ele>
        <time>2017-03-14T11:06:11Z</time>
      </trkpt>
      <trkpt lat="45.44809" lon="5.89546">
        <ele>896.21967</ele>
        <time>2017-03-14T11:06:24Z</time>
      </trkpt>
      <trkpt lat="45.44819" lon="5.89548">
        <ele>895.3715</ele>
        <time>2017-03-14T11:06:35Z</time>
      </trkpt>
      <trkpt lat="45.44829" lon="5.89544">
        <ele>894.4652</ele>
        <time>2017-03-14T11:06:45Z</time>
      </trkpt>
      <trkpt lat="45.44836" lon="5.89534">
        <ele>892.9961</ele>
        <time>2017-03-14T11:06:57Z</time>
      </trkpt>
      <trkpt lat="45.4484" lon="5.89522">
        <ele>892.40424</ele>
        <time>2017-03-14T11:07:07Z</time>
      </trkpt>
      <trkpt lat="45.44844" lon="5.8951">
        <ele>891.6512</ele>
        <time>2017-03-14T11:07:18Z</time>
      </trkpt>
      <trkpt lat="45.44852" lon="5.89501">
        <ele>890.515</ele>
        <time>2017-03-14T11:07:31Z</time>
      </trkpt>
      <trkpt lat="45.4486" lon="5.89493">
        <ele>889.34186</ele>
        <time>2017-03-14T11:07:43Z</time>
      </trkpt>
      <trkpt lat="45.44866" lon="5.89482">
        <ele>888.2479</ele>
        <time>2017-03-14T11:07:54Z</time>
      </trkpt>
      <trkpt lat="45.44873" lon="5.89475">
        <ele>887.5953</ele>
        <time>2017-03-14T11:08:05Z</time>
      </trkpt>
      <trkpt lat="45.4488" lon="5.89465">
        <ele>885.34143</ele>
        <time>2017-03-14T11:08:18Z</time>
      </trkpt>
      <trkpt lat="45.44885" lon="5.89454">
        <ele>885.8355</ele>
        <time>2017-03-14T11:08:29Z</time>
      </trkpt>
      <trkpt lat="45.44891" lon="5.89443">
        <ele>884.9927</ele>
        <time>2017-03-14T11:08:39Z</time>
      </trkpt>
      <trkpt lat="45.44896" lon="5.89432">
        <ele>883.5473</ele>
        <time>2017-03-14T11:08:51Z</time>
      </trkpt>
      <trkpt lat="45.449" lon="5.8942">
        <ele>882.966</ele>
        <time>2017-03-14T11:09:02Z</time>
      </trkpt>
      <trkpt lat="45.44904" lon="5.89408">
        <ele>882.33716</ele>
        <time>2017-03-14T11:09:14Z</time>
      </trkpt>
      <trkpt lat="45.44907" lon="5.89394">
        <ele>881.1006</ele>
        <time>2017-03-14T11:09:26Z</time>
      </trkpt>
      <trkpt lat="45.44909" lon="5.89382">
        <ele>880.88654</ele>
        <time>2017-03-14T11:09:34Z</time>
      </trkpt>
      <trkpt lat="45.44915" lon="5.89372">
        <ele>880.46643</ele>
        <time>2017-03-14T11:09:43Z</time>
      </trkpt>
      <trkpt lat="45.44922" lon="5.89362">
        <ele>879.26154</ele>
        <time>2017-03-14T11:09:56Z</time>
      </trkpt>
      <trkpt lat="45.4493" lon="5.89354">
        <ele>877.92194</ele>
        <time>2017-03-14T11:10:08Z</time>
      </trkpt>
      <trkpt lat="45.44936" lon="5.89345">
        <ele>877.42255</ele>
        <time>2017-03-14T11:10:18Z</time>
      </trkpt>
      <trkpt lat="45.44943" lon="5.89336">
        <ele>875.1</ele>
        <time>2017-03-14T11:10:28Z</time>
      </trkpt>
      <trkpt lat="45.44949" lon="5.89325">
        <ele>872.9571</ele>
        <time>2017-03-14T11:10:38Z</time>
      </trkpt>
      <trkpt lat="45.44954" lon="5.89314">
        <ele>874.19366</ele>
        <time>2017-03-14T11:10:50Z</time>
      </trkpt>
      <trkpt lat="45.4496" lon="5.89304">
        <ele>872.72723</ele>
        <time>2017-03-14T11:11:00Z</time>
      </trkpt>
      <trkpt lat="45.44967" lon="5.89296">
        <ele>871.3585</ele>
        <time>2017-03-14T11:11:11Z</time>
      </trkpt>
      <trkpt lat="45.44973" lon="5.89283">
        <ele>870.92786</ele>
        <time>2017-03-14T11:11:22Z</time>
      </trkpt>
      <trkpt lat="45.44981" lon="5.89275">
        <ele>868.87744</ele>
        <time>2017-03-14T11:11:33Z</time>
      </trkpt>
      <trkpt lat="45.44984" lon="5.89262">
        <ele>869.4878</ele>
        <time>2017-03-14T11:11:49Z</time>
      </trkpt>
      <trkpt lat="45.44984" lon="5.89276">
        <ele>871.62805</ele>
        <time>2017-03-14T11:12:45Z</time>
      </trkpt>
      <trkpt lat="45.44992" lon="5.89284">
        <ele>874.0246</ele>
        <time>2017-03-14T11:12:59Z</time>
      </trkpt>
      <trkpt lat="45.45" lon="5.89291">
        <ele>874.2439</ele>
        <time>2017-03-14T11:13:34Z</time>
      </trkpt>
      <trkpt lat="45.4501" lon="5.89286">
        <ele>874.1752</ele>
        <time>2017-03-14T11:13:47Z</time>
      </trkpt>
      <trkpt lat="45.4502" lon="5.89282">
        <ele>873.99023</ele>
        <time>2017-03-14T11:14:00Z</time>
      </trkpt>
      <trkpt lat="45.45029" lon="5.89278">
        <ele>875.1053</ele>
        <time>2017-03-14T11:14:11Z</time>
      </trkpt>
      <trkpt lat="45.45037" lon="5.89269">
        <ele>875.1317</ele>
        <time>2017-03-14T11:14:21Z</time>
      </trkpt>
      <trkpt lat="45.45046" lon="5.89273">
        <ele>875.03394</ele>
        <time>2017-03-14T11:14:33Z</time>
      </trkpt>
      <trkpt lat="45.45053" lon="5.89258">
        <ele>872.9175</ele>
        <time>2017-03-14T11:15:45Z</time>
      </trkpt>
      <trkpt lat="45.45061" lon="5.89252">
        <ele>872.9069</ele>
        <time>2017-03-14T11:15:56Z</time>
      </trkpt>
      <trkpt lat="45.45062" lon="5.89253">
        <ele>874.27295</ele>
        <time>2017-03-14T11:16:47Z</time>
      </trkpt>
      <trkpt lat="45.45062" lon="5.89252">
        <ele>874.0853</ele>
        <time>2017-03-14T11:17:10Z</time>
      </trkpt>
      <trkpt lat="45.45052" lon="5.89261">
        <ele>874.3073</ele>
        <time>2017-03-14T11:17:29Z</time>
      </trkpt>
      <trkpt lat="45.4506" lon="5.89254">
        <ele>873.89246</ele>
        <time>2017-03-14T11:18:35Z</time>
      </trkpt>
      <trkpt lat="45.45066" lon="5.89245">
        <ele>873.5965</ele>
        <time>2017-03-14T11:19:03Z</time>
      </trkpt>
      <trkpt lat="45.45073" lon="5.89237">
        <ele>872.17236</ele>
        <time>2017-03-14T11:19:17Z</time>
      </trkpt>
      <trkpt lat="45.4508" lon="5.89228">
        <ele>872.8197</ele>
        <time>2017-03-14T11:19:26Z</time>
      </trkpt>
      <trkpt lat="45.45088" lon="5.89221">
        <ele>873.34814</ele>
        <time>2017-03-14T11:19:38Z</time>
      </trkpt>
      <trkpt lat="45.45095" lon="5.89211">
        <ele>874.6085</ele>
        <time>2017-03-14T11:19:50Z</time>
      </trkpt>
      <trkpt lat="45.45104" lon="5.89205">
        <ele>875.0498</ele>
        <time>2017-03-14T11:20:02Z</time>
      </trkpt>
      <trkpt lat="45.45111" lon="5.89197">
        <ele>876.5083</ele>
        <time>2017-03-14T11:20:14Z</time>
      </trkpt>
      <trkpt lat="45.45118" lon="5.89188">
        <ele>877.1636</ele>
        <time>2017-03-14T11:20:25Z</time>
      </trkpt>
      <trkpt lat="45.45126" lon="5.89181">
        <ele>877.87964</ele>
        <time>2017-03-14T11:20:35Z</time>
      </trkpt>
      <trkpt lat="45.45135" lon="5.89174">
        <ele>879.037</ele>
        <time>2017-03-14T11:20:50Z</time>
      </trkpt>
      <trkpt lat="45.45143" lon="5.8917">
        <ele>879.576</ele>
        <time>2017-03-14T11:21:39Z</time>
      </trkpt>
      <trkpt lat="45.45152" lon="5.89163">
        <ele>881.0636</ele>
        <time>2017-03-14T11:21:49Z</time>
      </trkpt>
      <trkpt lat="45.45161" lon="5.8916">
        <ele>880.5272</ele>
        <time>2017-03-14T11:21:59Z</time>
      </trkpt>
      <trkpt lat="45.4517" lon="5.89156">
        <ele>881.238</ele>
        <time>2017-03-14T11:22:09Z</time>
      </trkpt>
      <trkpt lat="45.45179" lon="5.89153">
        <ele>882.2262</ele>
        <time>2017-03-14T11:22:19Z</time>
      </trkpt>
      <trkpt lat="45.45188" lon="5.89149">
        <ele>885.18024</ele>
        <time>2017-03-14T11:22:29Z</time>
      </trkpt>
      <trkpt lat="45.45197" lon="5.89145">
        <ele>886.57275</ele>
        <time>2017-03-14T11:22:41Z</time>
      </trkpt>
      <trkpt lat="45.45206" lon="5.89141">
        <ele>890.2508</ele>
        <time>2017-03-14T11:22:56Z</time>
      </trkpt>
      <trkpt lat="45.45216" lon="5.89141">
        <ele>891.527</ele>
        <time>2017-03-14T11:23:12Z</time>
      </trkpt>
      <trkpt lat="45.45225" lon="5.89142">
        <ele>893.6593</ele>
        <time>2017-03-14T11:23:26Z</time>
      </trkpt>
      <trkpt lat="45.45234" lon="5.89141">
        <ele>895.46136</ele>
        <time>2017-03-14T11:23:41Z</time>
      </trkpt>
      <trkpt lat="45.45243" lon="5.89146">
        <ele>896.1034</ele>
        <time>2017-03-14T11:23:51Z</time>
      </trkpt>
      <trkpt lat="45.45241" lon="5.89146">
        <ele>896.0057</ele>
        <time>2017-03-14T11:26:00Z</time>
      </trkpt>
      <trkpt lat="45.45248" lon="5.89155">
        <ele>895.57495</ele>
        <time>2017-03-14T11:26:08Z</time>
      </trkpt>
      <trkpt lat="45.45256" lon="5.89162">
        <ele>895.5274</ele>
        <time>2017-03-14T11:26:17Z</time>
      </trkpt>
      <trkpt lat="45.45265" lon="5.89169">
        <ele>894.53656</ele>
        <time>2017-03-14T11:26:27Z</time>
      </trkpt>
      <trkpt lat="45.45274" lon="5.89173">
        <ele>896.21967</ele>
        <time>2017-03-14T11:26:40Z</time>
      </trkpt>
      <trkpt lat="45.45283" lon="5.89176">
        <ele>899.38245</ele>
        <time>2017-03-14T11:26:56Z</time>
      </trkpt>
      <trkpt lat="45.45284" lon="5.89176">
        <ele>900.1725</ele>
        <time>2017-03-14T11:28:52Z</time>
      </trkpt>
      <trkpt lat="45.45285" lon="5.8918">
        <ele>900.55035</ele>
        <time>2017-03-14T11:54:23Z</time>
      </trkpt>
      <trkpt lat="45.45286" lon="5.89168">
        <ele>900.2835</ele>
        <time>2017-03-14T12:25:36Z</time>
      </trkpt>
      <trkpt lat="45.45277" lon="5.89164">
        <ele>898.4128</ele>
        <time>2017-03-14T12:25:48Z</time>
      </trkpt>
      <trkpt lat="45.45269" lon="5.89154">
        <ele>895.81274</ele>
        <time>2017-03-14T12:27:06Z</time>
      </trkpt>
      <trkpt lat="45.4526" lon="5.8915">
        <ele>895.31866</ele>
        <time>2017-03-14T12:27:20Z</time>
      </trkpt>
      <trkpt lat="45.45267" lon="5.89139">
        <ele>894.8245</ele>
        <time>2017-03-14T12:27:46Z</time>
      </trkpt>
      <trkpt lat="45.45276" lon="5.89137">
        <ele>894.25116</ele>
        <time>2017-03-14T12:27:55Z</time>
      </trkpt>
      <trkpt lat="45.45285" lon="5.89136">
        <ele>893.20483</ele>
        <time>2017-03-14T12:28:04Z</time>
      </trkpt>
      <trkpt lat="45.45295" lon="5.89134">
        <ele>893.57477</ele>
        <time>2017-03-14T12:28:12Z</time>
      </trkpt>
      <trkpt lat="45.45305" lon="5.89131">
        <ele>894.2803</ele>
        <time>2017-03-14T12:28:24Z</time>
      </trkpt>
      <trkpt lat="45.45314" lon="5.89132">
        <ele>892.5152</ele>
        <time>2017-03-14T12:28:36Z</time>
      </trkpt>
      <trkpt lat="45.45323" lon="5.89135">
        <ele>892.6605</ele>
        <time>2017-03-14T12:28:46Z</time>
      </trkpt>
      <trkpt lat="45.45332" lon="5.89138">
        <ele>892.88513</ele>
        <time>2017-03-14T12:28:56Z</time>
      </trkpt>
      <trkpt lat="45.45342" lon="5.89142">
        <ele>892.2351</ele>
        <time>2017-03-14T12:29:09Z</time>
      </trkpt>
      <trkpt lat="45.45354" lon="5.89148">
        <ele>889.7329</ele>
        <time>2017-03-14T12:30:09Z</time>
      </trkpt>
      <trkpt lat="45.45364" lon="5.89153">
        <ele>890.05</ele>
        <time>2017-03-14T12:30:17Z</time>
      </trkpt>
      <trkpt lat="45.45373" lon="5.89157">
        <ele>889.4687</ele>
        <time>2017-03-14T12:30:24Z</time>
      </trkpt>
      <trkpt lat="45.45381" lon="5.89166">
        <ele>891.2971</ele>
        <time>2017-03-14T12:30:35Z</time>
      </trkpt>
      <trkpt lat="45.4539" lon="5.89171">
        <ele>889.07495</ele>
        <time>2017-03-14T12:30:42Z</time>
      </trkpt>
      <trkpt lat="45.45397" lon="5.89178">
        <ele>888.5227</ele>
        <time>2017-03-14T12:30:50Z</time>
      </trkpt>
      <trkpt lat="45.45408" lon="5.89182">
        <ele>886.7181</ele>
        <time>2017-03-14T12:30:56Z</time>
      </trkpt>
      <trkpt lat="45.45415" lon="5.8919">
        <ele>886.66785</ele>
        <time>2017-03-14T12:31:05Z</time>
      </trkpt>
      <trkpt lat="45.45417" lon="5.89203">
        <ele>885.6321</ele>
        <time>2017-03-14T12:31:14Z</time>
      </trkpt>
      <trkpt lat="45.45425" lon="5.8921">
        <ele>885.94916</ele>
        <time>2017-03-14T12:31:19Z</time>
      </trkpt>
      <trkpt lat="45.45432" lon="5.8922">
        <ele>884.9979</ele>
        <time>2017-03-14T12:31:25Z</time>
      </trkpt>
      <trkpt lat="45.45432" lon="5.89234">
        <ele>885.26483</ele>
        <time>2017-03-14T12:31:34Z</time>
      </trkpt>
      <trkpt lat="45.45435" lon="5.89247">
        <ele>884.7337</ele>
        <time>2017-03-14T12:31:43Z</time>
      </trkpt>
      <trkpt lat="45.45441" lon="5.89257">
        <ele>884.1445</ele>
        <time>2017-03-14T12:31:51Z</time>
      </trkpt>
      <trkpt lat="45.45446" lon="5.89269">
        <ele>882.8049</ele>
        <time>2017-03-14T12:32:03Z</time>
      </trkpt>
      <trkpt lat="45.45456" lon="5.89279">
        <ele>878.6142</ele>
        <time>2017-03-14T12:33:29Z</time>
      </trkpt>
      <trkpt lat="45.45461" lon="5.8929">
        <ele>878.3949</ele>
        <time>2017-03-14T12:33:33Z</time>
      </trkpt>
      <trkpt lat="45.45467" lon="5.89301">
        <ele>877.9589</ele>
        <time>2017-03-14T12:33:45Z</time>
      </trkpt>
      <trkpt lat="45.45477" lon="5.89306">
        <ele>875.07886</ele>
        <time>2017-03-14T12:33:54Z</time>
      </trkpt>
      <trkpt lat="45.45481" lon="5.89317">
        <ele>874.5689</ele>
        <time>2017-03-14T12:34:09Z</time>
      </trkpt>
      <trkpt lat="45.45488" lon="5.89327">
        <ele>871.97943</ele>
        <time>2017-03-14T12:34:18Z</time>
      </trkpt>
      <trkpt lat="45.45497" lon="5.89333">
        <ele>871.6148</ele>
        <time>2017-03-14T12:34:27Z</time>
      </trkpt>
      <trkpt lat="45.45505" lon="5.89344">
        <ele>869.7679</ele>
        <time>2017-03-14T12:34:40Z</time>
      </trkpt>
      <trkpt lat="45.4551" lon="5.89355">
        <ele>870.56055</ele>
        <time>2017-03-14T12:34:49Z</time>
      </trkpt>
      <trkpt lat="45.45517" lon="5.89364">
        <ele>870.72437</ele>
        <time>2017-03-14T12:35:02Z</time>
      </trkpt>
      <trkpt lat="45.45525" lon="5.89372">
        <ele>870.61865</ele>
        <time>2017-03-14T12:35:12Z</time>
      </trkpt>
      <trkpt lat="45.45531" lon="5.89383">
        <ele>870.14044</ele>
        <time>2017-03-14T12:35:22Z</time>
      </trkpt>
      <trkpt lat="45.45538" lon="5.89394">
        <ele>869.79956</ele>
        <time>2017-03-14T12:35:33Z</time>
      </trkpt>
      <trkpt lat="45.45544" lon="5.89405">
        <ele>870.2725</ele>
        <time>2017-03-14T12:35:45Z</time>
      </trkpt>
      <trkpt lat="45.45551" lon="5.89415">
        <ele>870.61865</ele>
        <time>2017-03-14T12:35:57Z</time>
      </trkpt>
      <trkpt lat="45.45561" lon="5.89417">
        <ele>870.8512</ele>
        <time>2017-03-14T12:36:02Z</time>
      </trkpt>
      <trkpt lat="45.45568" lon="5.89424">
        <ele>869.78375</ele>
        <time>2017-03-14T12:36:23Z</time>
      </trkpt>
      <trkpt lat="45.45576" lon="5.89433">
        <ele>869.5829</ele>
        <time>2017-03-14T12:36:46Z</time>
      </trkpt>
      <trkpt lat="45.45582" lon="5.89442">
        <ele>870.55</ele>
        <time>2017-03-14T12:36:56Z</time>
      </trkpt>
      <trkpt lat="45.45592" lon="5.89448">
        <ele>870.42847</ele>
        <time>2017-03-14T12:37:11Z</time>
      </trkpt>
      <trkpt lat="45.45598" lon="5.89458">
        <ele>870.1114</ele>
        <time>2017-03-14T12:37:23Z</time>
      </trkpt>
      <trkpt lat="45.45607" lon="5.89465">
        <ele>870.6081</ele>
        <time>2017-03-14T12:37:37Z</time>
      </trkpt>
      <trkpt lat="45.4561" lon="5.89477">
        <ele>871.0917</ele>
        <time>2017-03-14T12:37:46Z</time>
      </trkpt>
      <trkpt lat="45.45614" lon="5.8949">
        <ele>869.23676</ele>
        <time>2017-03-14T12:37:56Z</time>
      </trkpt>
      <trkpt lat="45.45618" lon="5.89502">
        <ele>867.2656</ele>
        <time>2017-03-14T12:38:11Z</time>
      </trkpt>
      <trkpt lat="45.45623" lon="5.89515">
        <ele>867.5457</ele>
        <time>2017-03-14T12:38:25Z</time>
      </trkpt>
      <trkpt lat="45.45611" lon="5.8953">
        <ele>866.5205</ele>
        <time>2017-03-14T12:39:08Z</time>
      </trkpt>
      <trkpt lat="45.45612" lon="5.89541">
        <ele>867.337</ele>
        <time>2017-03-14T12:40:27Z</time>
      </trkpt>
      <trkpt lat="45.4563" lon="5.89538">
        <ele>871.49066</ele>
        <time>2017-03-14T12:40:52Z</time>
      </trkpt>
      <trkpt lat="45.45639" lon="5.89536">
        <ele>871.8923</ele>
        <time>2017-03-14T12:40:54Z</time>
      </trkpt>
      <trkpt lat="45.4565" lon="5.89531">
        <ele>872.48676</ele>
        <time>2017-03-14T12:40:59Z</time>
      </trkpt>
      <trkpt lat="45.45659" lon="5.89532">
        <ele>874.43146</ele>
        <time>2017-03-14T12:41:11Z</time>
      </trkpt>
      <trkpt lat="45.45669" lon="5.89534">
        <ele>875.5465</ele>
        <time>2017-03-14T12:41:18Z</time>
      </trkpt>
      <trkpt lat="45.45679" lon="5.89533">
        <ele>877.7396</ele>
        <time>2017-03-14T12:41:33Z</time>
      </trkpt>
      <trkpt lat="45.45688" lon="5.89525">
        <ele>876.86237</ele>
        <time>2017-03-14T12:43:15Z</time>
      </trkpt>
      <trkpt lat="45.45694" lon="5.89514">
        <ele>876.8254</ele>
        <time>2017-03-14T12:43:26Z</time>
      </trkpt>
      <trkpt lat="45.45698" lon="5.89502">
        <ele>876.2467</ele>
        <time>2017-03-14T12:43:36Z</time>
      </trkpt>
      <trkpt lat="45.45703" lon="5.89491">
        <ele>875.39594</ele>
        <time>2017-03-14T12:43:54Z</time>
      </trkpt>
      <trkpt lat="45.45711" lon="5.89485">
        <ele>874.53186</ele>
        <time>2017-03-14T12:44:01Z</time>
      </trkpt>
      <trkpt lat="45.45721" lon="5.89478">
        <ele>874.30994</ele>
        <time>2017-03-14T12:44:11Z</time>
      </trkpt>
      <trkpt lat="45.45725" lon="5.89466">
        <ele>874.9837</ele>
        <time>2017-03-14T12:44:24Z</time>
      </trkpt>
      <trkpt lat="45.45729" lon="5.89479">
        <ele>875.44086</ele>
        <time>2017-03-14T12:44:29Z</time>
      </trkpt>
      <trkpt lat="45.45732" lon="5.89493">
        <ele>875.91644</ele>
        <time>2017-03-14T12:44:38Z</time>
      </trkpt>
      <trkpt lat="45.45741" lon="5.89488">
        <ele>875.2242</ele>
        <time>2017-03-14T12:44:53Z</time>
      </trkpt>
      <trkpt lat="45.45745" lon="5.895">
        <ele>874.93085</ele>
        <time>2017-03-14T12:44:59Z</time>
      </trkpt>
      <trkpt lat="45.45752" lon="5.89514">
        <ele>874.97577</ele>
        <time>2017-03-14T12:45:07Z</time>
      </trkpt>
      <trkpt lat="45.45757" lon="5.89494">
        <ele>875.01276</ele>
        <time>2017-03-14T12:45:15Z</time>
      </trkpt>
      <trkpt lat="45.45755" lon="5.89481">
        <ele>875.1396</ele>
        <time>2017-03-14T12:45:21Z</time>
      </trkpt>
      <trkpt lat="45.45744" lon="5.89475">
        <ele>874.84894</ele>
        <time>2017-03-14T12:45:27Z</time>
      </trkpt>
      <trkpt lat="45.45737" lon="5.89472">
        <ele>872.14594</ele>
        <time>2017-03-14T12:48:19Z</time>
      </trkpt>
      <trkpt lat="45.45743" lon="5.8946">
        <ele>869.11786</ele>
        <time>2017-03-14T12:48:48Z</time>
      </trkpt>
      <trkpt lat="45.4575" lon="5.89452">
        <ele>866.4782</ele>
        <time>2017-03-14T12:48:53Z</time>
      </trkpt>
      <trkpt lat="45.45756" lon="5.89439">
        <ele>862.9561</ele>
        <time>2017-03-14T12:49:12Z</time>
      </trkpt>
      <trkpt lat="45.45771" lon="5.89436">
        <ele>854.8047</ele>
        <time>2017-03-14T12:50:02Z</time>
      </trkpt>
      <trkpt lat="45.45781" lon="5.89433">
        <ele>850.9364</ele>
        <time>2017-03-14T12:50:18Z</time>
      </trkpt>
      <trkpt lat="45.45791" lon="5.89432">
        <ele>848.228</ele>
        <time>2017-03-14T12:50:36Z</time>
      </trkpt>
      <trkpt lat="45.45807" lon="5.89426">
        <ele>843.00165</ele>
        <time>2017-03-14T12:51:19Z</time>
      </trkpt>
      <trkpt lat="45.4582" lon="5.89425">
        <ele>840.3435</ele>
        <time>2017-03-14T12:51:33Z</time>
      </trkpt>
      <trkpt lat="45.45828" lon="5.89418">
        <ele>836.248</ele>
        <time>2017-03-14T12:51:49Z</time>
      </trkpt>
      <trkpt lat="45.45835" lon="5.89409">
        <ele>832.88434</ele>
        <time>2017-03-14T12:52:10Z</time>
      </trkpt>
      <trkpt lat="45.45844" lon="5.89406">
        <ele>828.1283</ele>
        <time>2017-03-14T12:52:37Z</time>
      </trkpt>
      <trkpt lat="45.45855" lon="5.89406">
        <ele>825.26935</ele>
        <time>2017-03-14T12:52:54Z</time>
      </trkpt>
      <trkpt lat="45.45865" lon="5.89408">
        <ele>822.4606</ele>
        <time>2017-03-14T12:53:08Z</time>
      </trkpt>
      <trkpt lat="45.45875" lon="5.89411">
        <ele>821.3693</ele>
        <time>2017-03-14T12:53:17Z</time>
      </trkpt>
      <trkpt lat="45.45882" lon="5.89419">
        <ele>818.5553</ele>
        <time>2017-03-14T12:53:31Z</time>
      </trkpt>
      <trkpt lat="45.45891" lon="5.89422">
        <ele>817.3346</ele>
        <time>2017-03-14T12:53:38Z</time>
      </trkpt>
      <trkpt lat="45.459" lon="5.89425">
        <ele>815.9263</ele>
        <time>2017-03-14T12:53:46Z</time>
      </trkpt>
      <trkpt lat="45.45909" lon="5.8943">
        <ele>814.1242</ele>
        <time>2017-03-14T12:53:53Z</time>
      </trkpt>
      <trkpt lat="45.45918" lon="5.89432">
        <ele>810.8346</ele>
        <time>2017-03-14T12:54:06Z</time>
      </trkpt>
      <trkpt lat="45.45928" lon="5.89427">
        <ele>805.7641</ele>
        <time>2017-03-14T12:54:37Z</time>
      </trkpt>
      <trkpt lat="45.45942" lon="5.89425">
        <ele>804.6755</ele>
        <time>2017-03-14T12:55:12Z</time>
      </trkpt>
      <trkpt lat="45.45951" lon="5.89431">
        <ele>804.66754</ele>
        <time>2017-03-14T12:55:20Z</time>
      </trkpt>
      <trkpt lat="45.45959" lon="5.89437">
        <ele>805.0401</ele>
        <time>2017-03-14T12:55:30Z</time>
      </trkpt>
      <trkpt lat="45.45968" lon="5.89436">
        <ele>806.5832</ele>
        <time>2017-03-14T12:55:43Z</time>
      </trkpt>
      <trkpt lat="45.45973" lon="5.89433">
        <ele>807.55023</ele>
        <time>2017-03-14T12:57:02Z</time>
      </trkpt>
      <trkpt lat="45.45978" lon="5.89422">
        <ele>806.5039</ele>
        <time>2017-03-14T12:57:11Z</time>
      </trkpt>
      <trkpt lat="45.45982" lon="5.89409">
        <ele>805.83014</ele>
        <time>2017-03-14T12:57:19Z</time>
      </trkpt>
      <trkpt lat="45.45985" lon="5.89397">
        <ele>804.9714</ele>
        <time>2017-03-14T12:57:30Z</time>
      </trkpt>
      <trkpt lat="45.45987" lon="5.89384">
        <ele>802.633</ele>
        <time>2017-03-14T12:57:41Z</time>
      </trkpt>
      <trkpt lat="45.45987" lon="5.89371">
        <ele>801.6342</ele>
        <time>2017-03-14T12:57:50Z</time>
      </trkpt>
      <trkpt lat="45.45987" lon="5.89357">
        <ele>799.78723</ele>
        <time>2017-03-14T12:58:02Z</time>
      </trkpt>
      <trkpt lat="45.45986" lon="5.89344">
        <ele>799.2403</ele>
        <time>2017-03-14T12:58:12Z</time>
      </trkpt>
      <trkpt lat="45.45985" lon="5.8933">
        <ele>797.4805</ele>
        <time>2017-03-14T12:58:23Z</time>
      </trkpt>
      <trkpt lat="45.45983" lon="5.89317">
        <ele>796.0326</ele>
        <time>2017-03-14T12:58:35Z</time>
      </trkpt>
      <trkpt lat="45.45983" lon="5.89304">
        <ele>793.7814</ele>
        <time>2017-03-14T12:58:47Z</time>
      </trkpt>
      <trkpt lat="45.45993" lon="5.89288">
        <ele>792.33606</ele>
        <time>2017-03-14T13:01:45Z</time>
      </trkpt>
      <trkpt lat="45.46001" lon="5.89283">
        <ele>793.21857</ele>
        <time>2017-03-14T13:02:03Z</time>
      </trkpt>
      <trkpt lat="45.46011" lon="5.89281">
        <ele>793.607</ele>
        <time>2017-03-14T13:02:15Z</time>
      </trkpt>
      <trkpt lat="45.4602" lon="5.89284">
        <ele>793.47485</ele>
        <time>2017-03-14T13:02:25Z</time>
      </trkpt>
      <trkpt lat="45.46031" lon="5.89283">
        <ele>795.4486</ele>
        <time>2017-03-14T13:02:37Z</time>
      </trkpt>
      <trkpt lat="45.46033" lon="5.89287">
        <ele>797.4726</ele>
        <time>2017-03-14T13:03:56Z</time>
      </trkpt>
      <trkpt lat="45.46044" lon="5.89287">
        <ele>797.99316</ele>
        <time>2017-03-14T13:04:38Z</time>
      </trkpt>
      <trkpt lat="45.46053" lon="5.89284">
        <ele>799.0236</ele>
        <time>2017-03-14T13:04:52Z</time>
      </trkpt>
      <trkpt lat="45.46063" lon="5.89286">
        <ele>801.1454</ele>
        <time>2017-03-14T13:05:04Z</time>
      </trkpt>
      <trkpt lat="45.4607" lon="5.89294">
        <ele>802.6092</ele>
        <time>2017-03-14T13:05:17Z</time>
      </trkpt>
      <trkpt lat="45.46077" lon="5.89304">
        <ele>802.08075</ele>
        <time>2017-03-14T13:05:29Z</time>
      </trkpt>
      <trkpt lat="45.46085" lon="5.89314">
        <ele>803.5736</ele>
        <time>2017-03-14T13:05:41Z</time>
      </trkpt>
      <trkpt lat="45.46092" lon="5.89321">
        <ele>802.0966</ele>
        <time>2017-03-14T13:05:50Z</time>
      </trkpt>
      <trkpt lat="45.461" lon="5.8933">
        <ele>802.5299</ele>
        <time>2017-03-14T13:06:02Z</time>
      </trkpt>
      <trkpt lat="45.46108" lon="5.89337">
        <ele>803.86694</ele>
        <time>2017-03-14T13:06:12Z</time>
      </trkpt>
      <trkpt lat="45.46114" lon="5.89346">
        <ele>806.9874</ele>
        <time>2017-03-14T13:06:28Z</time>
      </trkpt>
      <trkpt lat="45.46121" lon="5.89356">
        <ele>806.7258</ele>
        <time>2017-03-14T13:06:40Z</time>
      </trkpt>
      <trkpt lat="45.46123" lon="5.8937">
        <ele>808.047</ele>
        <time>2017-03-14T13:06:55Z</time>
      </trkpt>
      <trkpt lat="45.46125" lon="5.89384">
        <ele>811.6141</ele>
        <time>2017-03-14T13:07:06Z</time>
      </trkpt>
      <trkpt lat="45.46133" lon="5.89392">
        <ele>810.00494</ele>
        <time>2017-03-14T13:07:18Z</time>
      </trkpt>
      <trkpt lat="45.4614" lon="5.89401">
        <ele>810.2612</ele>
        <time>2017-03-14T13:07:30Z</time>
      </trkpt>
      <trkpt lat="45.46147" lon="5.8941">
        <ele>811.34454</ele>
        <time>2017-03-14T13:07:40Z</time>
      </trkpt>
      <trkpt lat="45.46156" lon="5.89413">
        <ele>809.85693</ele>
        <time>2017-03-14T13:08:02Z</time>
      </trkpt>
      <trkpt lat="45.46164" lon="5.8942">
        <ele>808.7313</ele>
        <time>2017-03-14T13:08:11Z</time>
      </trkpt>
      <trkpt lat="45.46174" lon="5.89425">
        <ele>807.7431</ele>
        <time>2017-03-14T13:08:22Z</time>
      </trkpt>
      <trkpt lat="45.46182" lon="5.89434">
        <ele>807.2411</ele>
        <time>2017-03-14T13:08:33Z</time>
      </trkpt>
      <trkpt lat="45.46191" lon="5.89436">
        <ele>809.2941</ele>
        <time>2017-03-14T13:08:46Z</time>
      </trkpt>
      <trkpt lat="45.462" lon="5.89441">
        <ele>810.63116</ele>
        <time>2017-03-14T13:08:52Z</time>
      </trkpt>
      <trkpt lat="45.4621" lon="5.89448">
        <ele>808.3218</ele>
        <time>2017-03-14T13:09:03Z</time>
      </trkpt>
      <trkpt lat="45.46217" lon="5.89456">
        <ele>806.5594</ele>
        <time>2017-03-14T13:09:16Z</time>
      </trkpt>
      <trkpt lat="45.46232" lon="5.89471">
        <ele>806.57526</ele>
        <time>2017-03-14T13:10:01Z</time>
      </trkpt>
      <trkpt lat="45.46238" lon="5.89481">
        <ele>805.9173</ele>
        <time>2017-03-14T13:10:14Z</time>
      </trkpt>
      <trkpt lat="45.46246" lon="5.89488">
        <ele>804.9529</ele>
        <time>2017-03-14T13:10:23Z</time>
      </trkpt>
      <trkpt lat="45.46255" lon="5.89486">
        <ele>803.56305</ele>
        <time>2017-03-14T13:10:41Z</time>
      </trkpt>
      <trkpt lat="45.46264" lon="5.89482">
        <ele>804.5037</ele>
        <time>2017-03-14T13:10:48Z</time>
      </trkpt>
      <trkpt lat="45.4627" lon="5.89471">
        <ele>802.6303</ele>
        <time>2017-03-14T13:10:54Z</time>
      </trkpt>
      <trkpt lat="45.46279" lon="5.8947">
        <ele>801.835</ele>
        <time>2017-03-14T13:11:04Z</time>
      </trkpt>
      <trkpt lat="45.4629" lon="5.89479">
        <ele>802.2472</ele>
        <time>2017-03-14T13:11:14Z</time>
      </trkpt>
      <trkpt lat="45.46298" lon="5.89484">
        <ele>796.4342</ele>
        <time>2017-03-14T13:11:29Z</time>
      </trkpt>
      <trkpt lat="45.46307" lon="5.89486">
        <ele>794.16187</ele>
        <time>2017-03-14T13:11:36Z</time>
      </trkpt>
      <trkpt lat="45.46315" lon="5.89491">
        <ele>792.7403</ele>
        <time>2017-03-14T13:11:47Z</time>
      </trkpt>
      <trkpt lat="45.46325" lon="5.89491">
        <ele>790.54456</ele>
        <time>2017-03-14T13:12:00Z</time>
      </trkpt>
      <trkpt lat="45.46333" lon="5.89496">
        <ele>789.5722</ele>
        <time>2017-03-14T13:12:15Z</time>
      </trkpt>
      <trkpt lat="45.46352" lon="5.89493">
        <ele>790.24866</ele>
        <time>2017-03-14T13:13:36Z</time>
      </trkpt>
      <trkpt lat="45.46356" lon="5.8951">
        <ele>793.48804</ele>
        <time>2017-03-14T13:14:48Z</time>
      </trkpt>
      <trkpt lat="45.46362" lon="5.89519">
        <ele>794.6348</ele>
        <time>2017-03-14T13:14:55Z</time>
      </trkpt>
      <trkpt lat="45.46369" lon="5.89521">
        <ele>794.9968</ele>
        <time>2017-03-14T13:15:34Z</time>
      </trkpt>
      <trkpt lat="45.46397" lon="5.89526">
        <ele>798.03015</ele>
        <time>2017-03-14T13:17:03Z</time>
      </trkpt>
      <trkpt lat="45.46407" lon="5.89538">
        <ele>798.9972</ele>
        <time>2017-03-14T13:17:06Z</time>
      </trkpt>
      <trkpt lat="45.46416" lon="5.89541">
        <ele>798.93115</ele>
        <time>2017-03-14T13:17:09Z</time>
      </trkpt>
      <trkpt lat="45.46426" lon="5.89545">
        <ele>799.1716</ele>
        <time>2017-03-14T13:17:13Z</time>
      </trkpt>
      <trkpt lat="45.46434" lon="5.89535">
        <ele>802.448</ele>
        <time>2017-03-14T13:17:48Z</time>
      </trkpt>
      <trkpt lat="45.46444" lon="5.89533">
        <ele>800.9895</ele>
        <time>2017-03-14T13:17:56Z</time>
      </trkpt>
      <trkpt lat="45.46453" lon="5.89531">
        <ele>800.4663</ele>
        <time>2017-03-14T13:18:07Z</time>
      </trkpt>
      <trkpt lat="45.46463" lon="5.89534">
        <ele>798.76996</ele>
        <time>2017-03-14T13:18:22Z</time>
      </trkpt>
      <trkpt lat="45.46473" lon="5.8953">
        <ele>798.4582</ele>
        <time>2017-03-14T13:18:37Z</time>
      </trkpt>
      <trkpt lat="45.46481" lon="5.8952">
        <ele>798.76996</ele>
        <time>2017-03-14T13:18:44Z</time>
      </trkpt>
      <trkpt lat="45.4649" lon="5.8952">
        <ele>798.3181</ele>
        <time>2017-03-14T13:18:57Z</time>
      </trkpt>
      <trkpt lat="45.465" lon="5.89521">
        <ele>798.0011</ele>
        <time>2017-03-14T13:19:09Z</time>
      </trkpt>
      <trkpt lat="45.46509" lon="5.89515">
        <ele>799.8031</ele>
        <time>2017-03-14T13:19:15Z</time>
      </trkpt>
      <trkpt lat="45.46521" lon="5.89512">
        <ele>798.3789</ele>
        <time>2017-03-14T13:19:31Z</time>
      </trkpt>
      <trkpt lat="45.46529" lon="5.89503">
        <ele>798.52954</ele>
        <time>2017-03-14T13:19:38Z</time>
      </trkpt>
      <trkpt lat="45.46538" lon="5.89502">
        <ele>798.93646</ele>
        <time>2017-03-14T13:19:45Z</time>
      </trkpt>
      <trkpt lat="45.46547" lon="5.89497">
        <ele>798.9206</ele>
        <time>2017-03-14T13:19:52Z</time>
      </trkpt>
      <trkpt lat="45.46553" lon="5.89488">
        <ele>801.185</ele>
        <time>2017-03-14T13:20:02Z</time>
      </trkpt>
      <trkpt lat="45.46567" lon="5.89502">
        <ele>803.0716</ele>
        <time>2017-03-14T13:20:46Z</time>
      </trkpt>
      <trkpt lat="45.46562" lon="5.89514">
        <ele>806.0019</ele>
        <time>2017-03-14T13:21:13Z</time>
      </trkpt>
      <trkpt lat="45.46565" lon="5.89526">
        <ele>815.2261</ele>
        <time>2017-03-14T13:22:12Z</time>
      </trkpt>
      <trkpt lat="45.46562" lon="5.89539">
        <ele>814.4228</ele>
        <time>2017-03-14T13:22:25Z</time>
      </trkpt>
      <trkpt lat="45.46555" lon="5.89549">
        <ele>818.3624</ele>
        <time>2017-03-14T13:22:38Z</time>
      </trkpt>
      <trkpt lat="45.46566" lon="5.8956">
        <ele>826.6829</ele>
        <time>2017-03-14T13:24:10Z</time>
      </trkpt>
      <trkpt lat="45.46574" lon="5.89566">
        <ele>827.67114</ele>
        <time>2017-03-14T13:24:27Z</time>
      </trkpt>
      <trkpt lat="45.46588" lon="5.8957">
        <ele>830.1734</ele>
        <time>2017-03-14T13:25:26Z</time>
      </trkpt>
      <trkpt lat="45.46597" lon="5.89566">
        <ele>829.45734</ele>
        <time>2017-03-14T13:25:38Z</time>
      </trkpt>
      <trkpt lat="45.46606" lon="5.89568">
        <ele>830.6305</ele>
        <time>2017-03-14T13:25:49Z</time>
      </trkpt>
      <trkpt lat="45.46615" lon="5.89576">
        <ele>830.0122</ele>
        <time>2017-03-14T13:26:05Z</time>
      </trkpt>
      <trkpt lat="45.46623" lon="5.89584">
        <ele>829.9805</ele>
        <time>2017-03-14T13:26:14Z</time>
      </trkpt>
      <trkpt lat="45.46632" lon="5.89589">
        <ele>831.4734</ele>
        <time>2017-03-14T13:26:23Z</time>
      </trkpt>
      <trkpt lat="45.46642" lon="5.89592">
        <ele>830.5856</ele>
        <time>2017-03-14T13:26:32Z</time>
      </trkpt>
      <trkpt lat="45.46651" lon="5.89593">
        <ele>831.61346</ele>
        <time>2017-03-14T13:26:40Z</time>
      </trkpt>
      <trkpt lat="45.46659" lon="5.89587">
        <ele>832.2344</ele>
        <time>2017-03-14T13:26:48Z</time>
      </trkpt>
      <trkpt lat="45.46669" lon="5.89586">
        <ele>834.1817</ele>
        <time>2017-03-14T13:27:03Z</time>
      </trkpt>
      <trkpt lat="45.46678" lon="5.89585">
        <ele>834.327</ele>
        <time>2017-03-14T13:27:11Z</time>
      </trkpt>
      <trkpt lat="45.46687" lon="5.89583">
        <ele>833.38904</ele>
        <time>2017-03-14T13:27:19Z</time>
      </trkpt>
      <trkpt lat="45.46698" lon="5.89582">
        <ele>832.49066</ele>
        <time>2017-03-14T13:27:27Z</time>
      </trkpt>
      <trkpt lat="45.46708" lon="5.89581">
        <ele>833.17236</ele>
        <time>2017-03-14T13:27:36Z</time>
      </trkpt>
      <trkpt lat="45.46718" lon="5.89585">
        <ele>833.42865</ele>
        <time>2017-03-14T13:27:45Z</time>
      </trkpt>
      <trkpt lat="45.46726" lon="5.89592">
        <ele>831.76404</ele>
        <time>2017-03-14T13:27:52Z</time>
      </trkpt>
      <trkpt lat="45.46732" lon="5.89601">
        <ele>830.74677</ele>
        <time>2017-03-14T13:28:00Z</time>
      </trkpt>
      <trkpt lat="45.46739" lon="5.89608">
        <ele>830.4957</ele>
        <time>2017-03-14T13:28:07Z</time>
      </trkpt>
      <trkpt lat="45.46749" lon="5.89609">
        <ele>829.2354</ele>
        <time>2017-03-14T13:28:17Z</time>
      </trkpt>
      <trkpt lat="45.46756" lon="5.89618">
        <ele>828.0543</ele>
        <time>2017-03-14T13:28:24Z</time>
      </trkpt>
      <trkpt lat="45.46764" lon="5.89628">
        <ele>826.89166</ele>
        <time>2017-03-14T13:28:32Z</time>
      </trkpt>
      <trkpt lat="45.46772" lon="5.89637">
        <ele>827.4017</ele>
        <time>2017-03-14T13:28:40Z</time>
      </trkpt>
      <trkpt lat="45.46781" lon="5.8964">
        <ele>828.05695</ele>
        <time>2017-03-14T13:28:49Z</time>
      </trkpt>
      <trkpt lat="45.4679" lon="5.89651">
        <ele>828.1679</ele>
        <time>2017-03-14T13:28:57Z</time>
      </trkpt>
      <trkpt lat="45.468" lon="5.89651">
        <ele>826.41345</ele>
        <time>2017-03-14T13:29:07Z</time>
      </trkpt>
      <trkpt lat="45.46808" lon="5.8966">
        <ele>826.71466</ele>
        <time>2017-03-14T13:29:15Z</time>
      </trkpt>
      <trkpt lat="45.46816" lon="5.89669">
        <ele>827.08984</ele>
        <time>2017-03-14T13:29:22Z</time>
      </trkpt>
      <trkpt lat="45.4682" lon="5.8968">
        <ele>825.66833</ele>
        <time>2017-03-14T13:29:31Z</time>
      </trkpt>
      <trkpt lat="45.4682" lon="5.89693">
        <ele>826.55084</ele>
        <time>2017-03-14T13:29:38Z</time>
      </trkpt>
      <trkpt lat="45.46821" lon="5.89707">
        <ele>824.02484</ele>
        <time>2017-03-14T13:29:47Z</time>
      </trkpt>
      <trkpt lat="45.46827" lon="5.89719">
        <ele>824.1596</ele>
        <time>2017-03-14T13:29:54Z</time>
      </trkpt>
      <trkpt lat="45.46834" lon="5.89728">
        <ele>823.94556</ele>
        <time>2017-03-14T13:30:04Z</time>
      </trkpt>
      <trkpt lat="45.46845" lon="5.89725">
        <ele>825.77136</ele>
        <time>2017-03-14T13:30:17Z</time>
      </trkpt>
      <trkpt lat="45.46854" lon="5.89719">
        <ele>825.8744</ele>
        <time>2017-03-14T13:30:31Z</time>
      </trkpt>
      <trkpt lat="45.46863" lon="5.89716">
        <ele>827.0185</ele>
        <time>2017-03-14T13:30:50Z</time>
      </trkpt>
      <trkpt lat="45.46873" lon="5.89719">
        <ele>829.86426</ele>
        <time>2017-03-14T13:31:00Z</time>
      </trkpt>
      <trkpt lat="45.46882" lon="5.89719">
        <ele>832.67035</ele>
        <time>2017-03-14T13:31:16Z</time>
      </trkpt>
      <trkpt lat="45.46891" lon="5.89724">
        <ele>833.1169</ele>
        <time>2017-03-14T13:31:31Z</time>
      </trkpt>
      <trkpt lat="45.469" lon="5.89726">
        <ele>837.2732</ele>
        <time>2017-03-14T13:31:45Z</time>
      </trkpt>
      <trkpt lat="45.4691" lon="5.89724">
        <ele>837.07764</ele>
        <time>2017-03-14T13:32:03Z</time>
      </trkpt>
      <trkpt lat="45.46918" lon="5.89722">
        <ele>839.09106</ele>
        <time>2017-03-14T13:33:45Z</time>
      </trkpt>
      <trkpt lat="45.46927" lon="5.89726">
        <ele>841.7122</ele>
        <time>2017-03-14T13:34:04Z</time>
      </trkpt>
      <trkpt lat="45.46936" lon="5.89729">
        <ele>843.05975</ele>
        <time>2017-03-14T13:34:16Z</time>
      </trkpt>
      <trkpt lat="45.46945" lon="5.89727">
        <ele>846.0402</ele>
        <time>2017-03-14T13:34:35Z</time>
      </trkpt>
      <trkpt lat="45.46954" lon="5.89731">
        <ele>848.9758</ele>
        <time>2017-03-14T13:34:56Z</time>
      </trkpt>
      <trkpt lat="45.46964" lon="5.89735">
        <ele>853.95917</ele>
        <time>2017-03-14T13:35:51Z</time>
      </trkpt>
      <trkpt lat="45.46974" lon="5.89739">
        <ele>857.04535</ele>
        <time>2017-03-14T13:36:23Z</time>
      </trkpt>
      <trkpt lat="45.46983" lon="5.89745">
        <ele>859.41016</ele>
        <time>2017-03-14T13:36:49Z</time>
      </trkpt>
      <trkpt lat="45.4699" lon="5.89745">
        <ele>863.88354</ele>
        <time>2017-03-14T13:37:44Z</time>
      </trkpt>
      <trkpt lat="45.46999" lon="5.89749">
        <ele>868.71625</ele>
        <time>2017-03-14T13:38:12Z</time>
      </trkpt>
      <trkpt lat="45.47011" lon="5.8976">
        <ele>872.5211</ele>
        <time>2017-03-14T13:38:34Z</time>
      </trkpt>
      <trkpt lat="45.47021" lon="5.89759">
        <ele>875.15546</ele>
        <time>2017-03-14T13:41:11Z</time>
      </trkpt>
      <trkpt lat="45.47025" lon="5.89757">
        <ele>878.4187</ele>
        <time>2017-03-14T13:41:51Z</time>
      </trkpt>
      <trkpt lat="45.47034" lon="5.8976">
        <ele>881.7268</ele>
        <time>2017-03-14T13:42:49Z</time>
      </trkpt>
      <trkpt lat="45.47053" lon="5.89759">
        <ele>884.94507</ele>
        <time>2017-03-14T13:43:38Z</time>
      </trkpt>
      <trkpt lat="45.47061" lon="5.89766">
        <ele>885.61096</ele>
        <time>2017-03-14T13:43:53Z</time>
      </trkpt>
      <trkpt lat="45.47071" lon="5.89768">
        <ele>886.3006</ele>
        <time>2017-03-14T13:44:04Z</time>
      </trkpt>
      <trkpt lat="45.47085" lon="5.8977">
        <ele>889.7725</ele>
        <time>2017-03-14T13:44:41Z</time>
      </trkpt>
      <trkpt lat="45.47094" lon="5.89771">
        <ele>890.6762</ele>
        <time>2017-03-14T13:44:55Z</time>
      </trkpt>
      <trkpt lat="45.47103" lon="5.89772">
        <ele>892.36194</ele>
        <time>2017-03-14T13:45:08Z</time>
      </trkpt>
      <trkpt lat="45.47112" lon="5.89782">
        <ele>893.92883</ele>
        <time>2017-03-14T13:45:29Z</time>
      </trkpt>
      <trkpt lat="45.47119" lon="5.89792">
        <ele>893.97375</ele>
        <time>2017-03-14T13:45:37Z</time>
      </trkpt>
      <trkpt lat="45.47127" lon="5.89799">
        <ele>894.69244</ele>
        <time>2017-03-14T13:45:46Z</time>
      </trkpt>
      <trkpt lat="45.47136" lon="5.89806">
        <ele>894.47314</ele>
        <time>2017-03-14T13:45:55Z</time>
      </trkpt>
      <trkpt lat="45.47143" lon="5.89814">
        <ele>895.353</ele>
        <time>2017-03-14T13:46:14Z</time>
      </trkpt>
      <trkpt lat="45.47152" lon="5.89821">
        <ele>896.3254</ele>
        <time>2017-03-14T13:46:24Z</time>
      </trkpt>
      <trkpt lat="45.47163" lon="5.89824">
        <ele>895.65424</ele>
        <time>2017-03-14T13:46:36Z</time>
      </trkpt>
      <trkpt lat="45.47172" lon="5.89827">
        <ele>896.54205</ele>
        <time>2017-03-14T13:46:43Z</time>
      </trkpt>
      <trkpt lat="45.4718" lon="5.89836">
        <ele>898.1935</ele>
        <time>2017-03-14T13:46:51Z</time>
      </trkpt>
      <trkpt lat="45.47186" lon="5.89846">
        <ele>899.75507</ele>
        <time>2017-03-14T13:47:11Z</time>
      </trkpt>
      <trkpt lat="45.47191" lon="5.89856">
        <ele>901.3642</ele>
        <time>2017-03-14T13:47:38Z</time>
      </trkpt>
      <trkpt lat="45.47197" lon="5.89868">
        <ele>902.8518</ele>
        <time>2017-03-14T13:47:51Z</time>
      </trkpt>
      <trkpt lat="45.47205" lon="5.89873">
        <ele>904.5719</ele>
        <time>2017-03-14T13:48:07Z</time>
      </trkpt>
      <trkpt lat="45.47213" lon="5.89881">
        <ele>908.49304</ele>
        <time>2017-03-14T13:48:26Z</time>
      </trkpt>
      <trkpt lat="45.47221" lon="5.89887">
        <ele>910.5514</ele>
        <time>2017-03-14T13:48:50Z</time>
      </trkpt>
      <trkpt lat="45.47231" lon="5.89887">
        <ele>912.7841</ele>
        <time>2017-03-14T13:49:06Z</time>
      </trkpt>
      <trkpt lat="45.47239" lon="5.89882">
        <ele>913.7195</ele>
        <time>2017-03-14T13:49:24Z</time>
      </trkpt>
      <trkpt lat="45.47249" lon="5.89879">
        <ele>917.32086</ele>
        <time>2017-03-14T13:50:32Z</time>
      </trkpt>
      <trkpt lat="45.47258" lon="5.89877">
        <ele>918.3699</ele>
        <time>2017-03-14T13:50:53Z</time>
      </trkpt>
      <trkpt lat="45.47267" lon="5.89883">
        <ele>918.5759</ele>
        <time>2017-03-14T13:51:05Z</time>
      </trkpt>
      <trkpt lat="45.47274" lon="5.89893">
        <ele>922.83795</ele>
        <time>2017-03-14T13:51:25Z</time>
      </trkpt>
      <trkpt lat="45.47268" lon="5.89901">
        <ele>920.54443</ele>
        <time>2017-03-14T13:52:40Z</time>
      </trkpt>
      <trkpt lat="45.4726" lon="5.89913">
        <ele>917.9788</ele>
        <time>2017-03-14T13:54:34Z</time>
      </trkpt>
      <trkpt lat="45.47253" lon="5.89922">
        <ele>916.21375</ele>
        <time>2017-03-14T13:54:55Z</time>
      </trkpt>
      <trkpt lat="45.4725" lon="5.89937">
        <ele>911.52106</ele>
        <time>2017-03-14T13:55:24Z</time>
      </trkpt>
      <trkpt lat="45.47244" lon="5.89947">
        <ele>910.1418</ele>
        <time>2017-03-14T13:55:34Z</time>
      </trkpt>
      <trkpt lat="45.47239" lon="5.8996">
        <ele>905.5205</ele>
        <time>2017-03-14T13:56:01Z</time>
      </trkpt>
      <trkpt lat="45.47237" lon="5.89974">
        <ele>903.3459</ele>
        <time>2017-03-14T13:56:11Z</time>
      </trkpt>
      <trkpt lat="45.47234" lon="5.89986">
        <ele>902.5056</ele>
        <time>2017-03-14T13:56:25Z</time>
      </trkpt>
      <trkpt lat="45.47236" lon="5.89999">
        <ele>899.86334</ele>
        <time>2017-03-14T13:56:37Z</time>
      </trkpt>
      <trkpt lat="45.47239" lon="5.90012">
        <ele>895.34247</ele>
        <time>2017-03-14T13:56:54Z</time>
      </trkpt>
      <trkpt lat="45.4724" lon="5.90025">
        <ele>892.02905</ele>
        <time>2017-03-14T13:57:13Z</time>
      </trkpt>
      <trkpt lat="45.4724" lon="5.90039">
        <ele>889.0829</ele>
        <time>2017-03-14T13:57:29Z</time>
      </trkpt>
      <trkpt lat="45.47234" lon="5.9005">
        <ele>886.4961</ele>
        <time>2017-03-14T13:57:46Z</time>
      </trkpt>
      <trkpt lat="45.47215" lon="5.90043">
        <ele>887.5081</ele>
        <time>2017-03-14T13:58:49Z</time>
      </trkpt>
      <trkpt lat="45.47207" lon="5.90037">
        <ele>889.9707</ele>
        <time>2017-03-14T13:59:08Z</time>
      </trkpt>
      <trkpt lat="45.47191" lon="5.90041">
        <ele>891.5957</ele>
        <time>2017-03-14T13:59:43Z</time>
      </trkpt>
      <trkpt lat="45.47187" lon="5.90051">
        <ele>892.0026</ele>
        <time>2017-03-14T14:00:45Z</time>
      </trkpt>
      <trkpt lat="45.47178" lon="5.90056">
        <ele>891.1386</ele>
        <time>2017-03-14T14:00:56Z</time>
      </trkpt>
      <trkpt lat="45.47169" lon="5.90057">
        <ele>892.3197</ele>
        <time>2017-03-14T14:01:19Z</time>
      </trkpt>
      <trkpt lat="45.4716" lon="5.9006">
        <ele>890.3723</ele>
        <time>2017-03-14T14:01:30Z</time>
      </trkpt>
      <trkpt lat="45.47151" lon="5.90065">
        <ele>889.9918</ele>
        <time>2017-03-14T14:01:39Z</time>
      </trkpt>
      <trkpt lat="45.47142" lon="5.90068">
        <ele>889.9258</ele>
        <time>2017-03-14T14:01:48Z</time>
      </trkpt>
      <trkpt lat="45.47133" lon="5.90072">
        <ele>890.97473</ele>
        <time>2017-03-14T14:01:57Z</time>
      </trkpt>
      <trkpt lat="45.47125" lon="5.90075">
        <ele>892.56805</ele>
        <time>2017-03-14T14:02:10Z</time>
      </trkpt>
      <trkpt lat="45.47115" lon="5.90079">
        <ele>893.10706</ele>
        <time>2017-03-14T14:02:24Z</time>
      </trkpt>
      <trkpt lat="45.47106" lon="5.90081">
        <ele>892.16113</ele>
        <time>2017-03-14T14:02:34Z</time>
      </trkpt>
      <trkpt lat="45.47097" lon="5.90085">
        <ele>893.6804</ele>
        <time>2017-03-14T14:02:46Z</time>
      </trkpt>
      <trkpt lat="45.47088" lon="5.90088">
        <ele>892.79</ele>
        <time>2017-03-14T14:02:58Z</time>
      </trkpt>
      <trkpt lat="45.47079" lon="5.90091">
        <ele>893.5166</ele>
        <time>2017-03-14T14:03:08Z</time>
      </trkpt>
      <trkpt lat="45.47069" lon="5.90092">
        <ele>892.9591</ele>
        <time>2017-03-14T14:03:18Z</time>
      </trkpt>
      <trkpt lat="45.4706" lon="5.90095">
        <ele>894.666</ele>
        <time>2017-03-14T14:03:30Z</time>
      </trkpt>
      <trkpt lat="45.47051" lon="5.90096">
        <ele>896.95953</ele>
        <time>2017-03-14T14:04:07Z</time>
      </trkpt>
      <trkpt lat="45.47042" lon="5.90101">
        <ele>898.6955</ele>
        <time>2017-03-14T14:04:20Z</time>
      </trkpt>
      <trkpt lat="45.47045" lon="5.90114">
        <ele>899.6705</ele>
        <time>2017-03-14T14:04:37Z</time>
      </trkpt>
      <trkpt lat="45.4705" lon="5.90126">
        <ele>903.3697</ele>
        <time>2017-03-14T14:04:52Z</time>
      </trkpt>
      <trkpt lat="45.47054" lon="5.90138">
        <ele>904.8916</ele>
        <time>2017-03-14T14:05:07Z</time>
      </trkpt>
      <trkpt lat="45.4706" lon="5.90148">
        <ele>906.1361</ele>
        <time>2017-03-14T14:05:24Z</time>
      </trkpt>
      <trkpt lat="45.47067" lon="5.90157">
        <ele>907.31195</ele>
        <time>2017-03-14T14:05:36Z</time>
      </trkpt>
      <trkpt lat="45.47075" lon="5.90164">
        <ele>908.2209</ele>
        <time>2017-03-14T14:05:48Z</time>
      </trkpt>
      <trkpt lat="45.47081" lon="5.90173">
        <ele>909.5235</ele>
        <time>2017-03-14T14:06:00Z</time>
      </trkpt>
      <trkpt lat="45.47089" lon="5.90181">
        <ele>909.83</ele>
        <time>2017-03-14T14:06:25Z</time>
      </trkpt>
      <trkpt lat="45.47094" lon="5.90194">
        <ele>910.4721</ele>
        <time>2017-03-14T14:09:03Z</time>
      </trkpt>
      <trkpt lat="45.47091" lon="5.90207">
        <ele>910.1682</ele>
        <time>2017-03-14T14:09:11Z</time>
      </trkpt>
      <trkpt lat="45.47083" lon="5.90214">
        <ele>909.26196</ele>
        <time>2017-03-14T14:09:19Z</time>
      </trkpt>
      <trkpt lat="45.47074" lon="5.90217">
        <ele>908.1284</ele>
        <time>2017-03-14T14:09:28Z</time>
      </trkpt>
      <trkpt lat="45.47065" lon="5.9022">
        <ele>908.826</ele>
        <time>2017-03-14T14:09:37Z</time>
      </trkpt>
      <trkpt lat="45.47055" lon="5.90222">
        <ele>908.5485</ele>
        <time>2017-03-14T14:10:04Z</time>
      </trkpt>
      <trkpt lat="45.47046" lon="5.9022">
        <ele>907.9012</ele>
        <time>2017-03-14T14:10:16Z</time>
      </trkpt>
      <trkpt lat="45.47036" lon="5.90215">
        <ele>908.279</ele>
        <time>2017-03-14T14:10:26Z</time>
      </trkpt>
      <trkpt lat="45.47027" lon="5.90211">
        <ele>908.81274</ele>
        <time>2017-03-14T14:10:36Z</time>
      </trkpt>
      <trkpt lat="45.47018" lon="5.90205">
        <ele>907.8827</ele>
        <time>2017-03-14T14:10:45Z</time>
      </trkpt>
      <trkpt lat="45.47009" lon="5.90201">
        <ele>909.3306</ele>
        <time>2017-03-14T14:10:55Z</time>
      </trkpt>
      <trkpt lat="45.46999" lon="5.90202">
        <ele>909.5499</ele>
        <time>2017-03-14T14:11:10Z</time>
      </trkpt>
      <trkpt lat="45.4699" lon="5.90201">
        <ele>911.21985</ele>
        <time>2017-03-14T14:11:20Z</time>
      </trkpt>
      <trkpt lat="45.46981" lon="5.90201">
        <ele>912.9109</ele>
        <time>2017-03-14T14:11:29Z</time>
      </trkpt>
      <trkpt lat="45.46972" lon="5.90205">
        <ele>914.64954</ele>
        <time>2017-03-14T14:11:41Z</time>
      </trkpt>
      <trkpt lat="45.46962" lon="5.90207">
        <ele>915.3471</ele>
        <time>2017-03-14T14:11:52Z</time>
      </trkpt>
      <trkpt lat="45.46952" lon="5.9021">
        <ele>915.25726</ele>
        <time>2017-03-14T14:12:04Z</time>
      </trkpt>
      <trkpt lat="45.46943" lon="5.90211">
        <ele>916.0684</ele>
        <time>2017-03-14T14:12:16Z</time>
      </trkpt>
      <trkpt lat="45.46933" lon="5.90213">
        <ele>915.79364</ele>
        <time>2017-03-14T14:12:30Z</time>
      </trkpt>
      <trkpt lat="45.46923" lon="5.90212">
        <ele>917.16235</ele>
        <time>2017-03-14T14:12:40Z</time>
      </trkpt>
      <trkpt lat="45.46914" lon="5.90211">
        <ele>918.05804</ele>
        <time>2017-03-14T14:12:50Z</time>
      </trkpt>
      <trkpt lat="45.46905" lon="5.90214">
        <ele>919.5615</ele>
        <time>2017-03-14T14:13:03Z</time>
      </trkpt>
      <trkpt lat="45.46891" lon="5.9021">
        <ele>919.4717</ele>
        <time>2017-03-14T14:13:58Z</time>
      </trkpt>
      <trkpt lat="45.469" lon="5.90213">
        <ele>919.617</ele>
        <time>2017-03-14T14:14:08Z</time>
      </trkpt>
      <trkpt lat="45.46908" lon="5.9022">
        <ele>919.58795</ele>
        <time>2017-03-14T14:14:18Z</time>
      </trkpt>
      <trkpt lat="45.46915" lon="5.90229">
        <ele>919.5589</ele>
        <time>2017-03-14T14:14:42Z</time>
      </trkpt>
      <trkpt lat="45.46922" lon="5.90237">
        <ele>921.5802</ele>
        <time>2017-03-14T14:14:52Z</time>
      </trkpt>
      <trkpt lat="45.4693" lon="5.90244">
        <ele>921.6965</ele>
        <time>2017-03-14T14:15:00Z</time>
      </trkpt>
      <trkpt lat="45.46937" lon="5.90254">
        <ele>922.468</ele>
        <time>2017-03-14T14:15:12Z</time>
      </trkpt>
      <trkpt lat="45.46943" lon="5.90264">
        <ele>923.39813</ele>
        <time>2017-03-14T14:15:21Z</time>
      </trkpt>
      <trkpt lat="45.46952" lon="5.90269">
        <ele>924.0164</ele>
        <time>2017-03-14T14:15:32Z</time>
      </trkpt>
      <trkpt lat="45.46949" lon="5.90282">
        <ele>925.51984</ele>
        <time>2017-03-14T14:15:47Z</time>
      </trkpt>
      <trkpt lat="45.4694" lon="5.90286">
        <ele>925.5595</ele>
        <time>2017-03-14T14:15:56Z</time>
      </trkpt>
      <trkpt lat="45.46931" lon="5.90285">
        <ele>925.5727</ele>
        <time>2017-03-14T14:16:06Z</time>
      </trkpt>
      <trkpt lat="45.46921" lon="5.90286">
        <ele>925.8898</ele>
        <time>2017-03-14T14:16:16Z</time>
      </trkpt>
      <trkpt lat="45.46912" lon="5.90286">
        <ele>926.4605</ele>
        <time>2017-03-14T14:16:25Z</time>
      </trkpt>
      <trkpt lat="45.46902" lon="5.90287">
        <ele>927.05237</ele>
        <time>2017-03-14T14:16:35Z</time>
      </trkpt>
      <trkpt lat="45.46893" lon="5.90287">
        <ele>927.1369</ele>
        <time>2017-03-14T14:16:44Z</time>
      </trkpt>
      <trkpt lat="45.46883" lon="5.90288">
        <ele>927.77637</ele>
        <time>2017-03-14T14:16:54Z</time>
      </trkpt>
      <trkpt lat="45.46873" lon="5.90288">
        <ele>927.0365</ele>
        <time>2017-03-14T14:17:03Z</time>
      </trkpt>
      <trkpt lat="45.46864" lon="5.90289">
        <ele>926.8542</ele>
        <time>2017-03-14T14:17:14Z</time>
      </trkpt>
      <trkpt lat="45.46855" lon="5.90293">
        <ele>927.93225</ele>
        <time>2017-03-14T14:17:24Z</time>
      </trkpt>
      <trkpt lat="45.46845" lon="5.90293">
        <ele>928.4686</ele>
        <time>2017-03-14T14:17:47Z</time>
      </trkpt>
      <trkpt lat="45.46836" lon="5.90295">
        <ele>927.3826</ele>
        <time>2017-03-14T14:17:58Z</time>
      </trkpt>
      <trkpt lat="45.46826" lon="5.90293">
        <ele>926.80133</ele>
        <time>2017-03-14T14:18:07Z</time>
      </trkpt>
      <trkpt lat="45.46816" lon="5.90294">
        <ele>928.19385</ele>
        <time>2017-03-14T14:18:16Z</time>
      </trkpt>
      <trkpt lat="45.46807" lon="5.9029">
        <ele>927.1818</ele>
        <time>2017-03-14T14:18:27Z</time>
      </trkpt>
      <trkpt lat="45.46798" lon="5.90284">
        <ele>929.6867</ele>
        <time>2017-03-14T14:18:38Z</time>
      </trkpt>
      <trkpt lat="45.46789" lon="5.90279">
        <ele>929.03406</ele>
        <time>2017-03-14T14:18:49Z</time>
      </trkpt>
      <trkpt lat="45.4678" lon="5.90276">
        <ele>929.441</ele>
        <time>2017-03-14T14:18:59Z</time>
      </trkpt>
      <trkpt lat="45.46771" lon="5.90272">
        <ele>931.54156</ele>
        <time>2017-03-14T14:19:10Z</time>
      </trkpt>
      <trkpt lat="45.46761" lon="5.90268">
        <ele>930.35254</ele>
        <time>2017-03-14T14:19:21Z</time>
      </trkpt>
      <trkpt lat="45.46753" lon="5.90264">
        <ele>933.13226</ele>
        <time>2017-03-14T14:19:32Z</time>
      </trkpt>
      <trkpt lat="45.46744" lon="5.9026">
        <ele>932.218</ele>
        <time>2017-03-14T14:19:42Z</time>
      </trkpt>
      <trkpt lat="45.46735" lon="5.90255">
        <ele>933.08734</ele>
        <time>2017-03-14T14:19:53Z</time>
      </trkpt>
      <trkpt lat="45.46726" lon="5.90252">
        <ele>935.12714</ele>
        <time>2017-03-14T14:20:05Z</time>
      </trkpt>
      <trkpt lat="45.46716" lon="5.9025">
        <ele>935.5182</ele>
        <time>2017-03-14T14:20:16Z</time>
      </trkpt>
      <trkpt lat="45.46706" lon="5.90248">
        <ele>935.18</ele>
        <time>2017-03-14T14:20:26Z</time>
      </trkpt>
      <trkpt lat="45.46697" lon="5.90246">
        <ele>936.93713</ele>
        <time>2017-03-14T14:20:36Z</time>
      </trkpt>
      <trkpt lat="45.46688" lon="5.90244">
        <ele>936.31354</ele>
        <time>2017-03-14T14:20:46Z</time>
      </trkpt>
      <trkpt lat="45.46678" lon="5.90243">
        <ele>936.05194</ele>
        <time>2017-03-14T14:20:56Z</time>
      </trkpt>
      <trkpt lat="45.46668" lon="5.90241">
        <ele>936.38226</ele>
        <time>2017-03-14T14:21:06Z</time>
      </trkpt>
      <trkpt lat="45.46664" lon="5.9024">
        <ele>936.83673</ele>
        <time>2017-03-14T14:22:25Z</time>
      </trkpt>
      <trkpt lat="45.46656" lon="5.90232">
        <ele>936.0493</ele>
        <time>2017-03-14T14:22:36Z</time>
      </trkpt>
      <trkpt lat="45.46648" lon="5.90226">
        <ele>932.7967</ele>
        <time>2017-03-14T14:22:50Z</time>
      </trkpt>
      <trkpt lat="45.46639" lon="5.90221">
        <ele>932.14404</ele>
        <time>2017-03-14T14:23:03Z</time>
      </trkpt>
      <trkpt lat="45.4663" lon="5.90216">
        <ele>930.4741</ele>
        <time>2017-03-14T14:23:26Z</time>
      </trkpt>
      <trkpt lat="45.46621" lon="5.90213">
        <ele>931.93</ele>
        <time>2017-03-14T14:23:37Z</time>
      </trkpt>
      <trkpt lat="45.46611" lon="5.90209">
        <ele>930.75684</ele>
        <time>2017-03-14T14:23:47Z</time>
      </trkpt>
      <trkpt lat="45.46603" lon="5.90206">
        <ele>930.38165</ele>
        <time>2017-03-14T14:23:59Z</time>
      </trkpt>
      <trkpt lat="45.46594" lon="5.902">
        <ele>929.005</ele>
        <time>2017-03-14T14:24:09Z</time>
      </trkpt>
      <trkpt lat="45.46584" lon="5.90197">
        <ele>930.6908</ele>
        <time>2017-03-14T14:24:17Z</time>
      </trkpt>
      <trkpt lat="45.46575" lon="5.90195">
        <ele>929.33795</ele>
        <time>2017-03-14T14:24:27Z</time>
      </trkpt>
      <trkpt lat="45.46566" lon="5.90192">
        <ele>928.22815</ele>
        <time>2017-03-14T14:24:38Z</time>
      </trkpt>
      <trkpt lat="45.46557" lon="5.90186">
        <ele>928.33124</ele>
        <time>2017-03-14T14:24:48Z</time>
      </trkpt>
      <trkpt lat="45.46549" lon="5.90177">
        <ele>930.0064</ele>
        <time>2017-03-14T14:25:19Z</time>
      </trkpt>
      <trkpt lat="45.46541" lon="5.90172">
        <ele>928.8491</ele>
        <time>2017-03-14T14:25:29Z</time>
      </trkpt>
      <trkpt lat="45.46532" lon="5.90165">
        <ele>929.17413</ele>
        <time>2017-03-14T14:25:38Z</time>
      </trkpt>
      <trkpt lat="45.46524" lon="5.9016">
        <ele>927.018</ele>
        <time>2017-03-14T14:25:46Z</time>
      </trkpt>
      <trkpt lat="45.46515" lon="5.90155">
        <ele>926.3601</ele>
        <time>2017-03-14T14:25:56Z</time>
      </trkpt>
      <trkpt lat="45.46504" lon="5.90152">
        <ele>925.60706</ele>
        <time>2017-03-14T14:26:05Z</time>
      </trkpt>
      <trkpt lat="45.46496" lon="5.90146">
        <ele>924.4048</ele>
        <time>2017-03-14T14:26:15Z</time>
      </trkpt>
      <trkpt lat="45.46485" lon="5.90136">
        <ele>924.70074</ele>
        <time>2017-03-14T14:26:40Z</time>
      </trkpt>
      <trkpt lat="45.46476" lon="5.90127">
        <ele>923.40076</ele>
        <time>2017-03-14T14:26:51Z</time>
      </trkpt>
      <trkpt lat="45.46468" lon="5.90121">
        <ele>920.3357</ele>
        <time>2017-03-14T14:26:59Z</time>
      </trkpt>
      <trkpt lat="45.4646" lon="5.90113">
        <ele>919.2947</ele>
        <time>2017-03-14T14:27:07Z</time>
      </trkpt>
      <trkpt lat="45.46451" lon="5.90107">
        <ele>917.5322</ele>
        <time>2017-03-14T14:27:19Z</time>
      </trkpt>
      <trkpt lat="45.46442" lon="5.90101">
        <ele>917.4556</ele>
        <time>2017-03-14T14:27:33Z</time>
      </trkpt>
      <trkpt lat="45.46435" lon="5.90093">
        <ele>914.57294</ele>
        <time>2017-03-14T14:27:42Z</time>
      </trkpt>
      <trkpt lat="45.46426" lon="5.90086">
        <ele>916.404</ele>
        <time>2017-03-14T14:27:50Z</time>
      </trkpt>
      <trkpt lat="45.46409" lon="5.90083">
        <ele>915.0036</ele>
        <time>2017-03-14T14:28:39Z</time>
      </trkpt>
      <trkpt lat="45.464" lon="5.90077">
        <ele>912.8132</ele>
        <time>2017-03-14T14:28:50Z</time>
      </trkpt>
      <trkpt lat="45.46391" lon="5.9007">
        <ele>909.66095</ele>
        <time>2017-03-14T14:29:01Z</time>
      </trkpt>
      <trkpt lat="45.46382" lon="5.90065">
        <ele>906.9394</ele>
        <time>2017-03-14T14:29:15Z</time>
      </trkpt>
      <trkpt lat="45.46373" lon="5.90066">
        <ele>904.84143</ele>
        <time>2017-03-14T14:29:29Z</time>
      </trkpt>
      <trkpt lat="45.46364" lon="5.90071">
        <ele>904.43976</ele>
        <time>2017-03-14T14:29:40Z</time>
      </trkpt>
      <trkpt lat="45.46355" lon="5.90079">
        <ele>900.8463</ele>
        <time>2017-03-14T14:29:50Z</time>
      </trkpt>
      <trkpt lat="45.46346" lon="5.90084">
        <ele>900.02716</ele>
        <time>2017-03-14T14:29:59Z</time>
      </trkpt>
      <trkpt lat="45.46339" lon="5.90094">
        <ele>897.63855</ele>
        <time>2017-03-14T14:30:08Z</time>
      </trkpt>
      <trkpt lat="45.46332" lon="5.90103">
        <ele>895.85504</ele>
        <time>2017-03-14T14:30:19Z</time>
      </trkpt>
      <trkpt lat="45.46323" lon="5.90107">
        <ele>895.2394</ele>
        <time>2017-03-14T14:30:29Z</time>
      </trkpt>
      <trkpt lat="45.46313" lon="5.90106">
        <ele>893.6831</ele>
        <time>2017-03-14T14:30:49Z</time>
      </trkpt>
      <trkpt lat="45.46307" lon="5.90096">
        <ele>891.94446</ele>
        <time>2017-03-14T14:31:00Z</time>
      </trkpt>
      <trkpt lat="45.46311" lon="5.90084">
        <ele>890.8453</ele>
        <time>2017-03-14T14:31:10Z</time>
      </trkpt>
      <trkpt lat="45.46315" lon="5.90072">
        <ele>889.1252</ele>
        <time>2017-03-14T14:31:20Z</time>
      </trkpt>
      <trkpt lat="45.46316" lon="5.90058">
        <ele>888.3616</ele>
        <time>2017-03-14T14:31:31Z</time>
      </trkpt>
      <trkpt lat="45.46317" lon="5.90044">
        <ele>886.8607</ele>
        <time>2017-03-14T14:31:40Z</time>
      </trkpt>
      <trkpt lat="45.46315" lon="5.90032">
        <ele>886.8819</ele>
        <time>2017-03-14T14:31:48Z</time>
      </trkpt>
      <trkpt lat="45.46313" lon="5.90019">
        <ele>885.8223</ele>
        <time>2017-03-14T14:31:58Z</time>
      </trkpt>
      <trkpt lat="45.46313" lon="5.90006">
        <ele>884.9715</ele>
        <time>2017-03-14T14:32:08Z</time>
      </trkpt>
      <trkpt lat="45.46308" lon="5.89994">
        <ele>884.35583</ele>
        <time>2017-03-14T14:32:17Z</time>
      </trkpt>
      <trkpt lat="45.46315" lon="5.89985">
        <ele>882.2394</ele>
        <time>2017-03-14T14:32:27Z</time>
      </trkpt>
      <trkpt lat="45.46322" lon="5.89975">
        <ele>880.79144</ele>
        <time>2017-03-14T14:32:37Z</time>
      </trkpt>
      <trkpt lat="45.46324" lon="5.89962">
        <ele>879.22986</ele>
        <time>2017-03-14T14:32:48Z</time>
      </trkpt>
      <trkpt lat="45.46328" lon="5.8995">
        <ele>877.8083</ele>
        <time>2017-03-14T14:32:57Z</time>
      </trkpt>
      <trkpt lat="45.46326" lon="5.89937">
        <ele>878.1307</ele>
        <time>2017-03-14T14:33:06Z</time>
      </trkpt>
      <trkpt lat="45.4632" lon="5.89927">
        <ele>876.92053</ele>
        <time>2017-03-14T14:33:13Z</time>
      </trkpt>
      <trkpt lat="45.46312" lon="5.89917">
        <ele>876.6087</ele>
        <time>2017-03-14T14:33:25Z</time>
      </trkpt>
      <trkpt lat="45.46312" lon="5.89904">
        <ele>876.3894</ele>
        <time>2017-03-14T14:33:33Z</time>
      </trkpt>
      <trkpt lat="45.46303" lon="5.89896">
        <ele>875.53595</ele>
        <time>2017-03-14T14:33:42Z</time>
      </trkpt>
      <trkpt lat="45.46297" lon="5.89887">
        <ele>876.5638</ele>
        <time>2017-03-14T14:33:50Z</time>
      </trkpt>
      <trkpt lat="45.46295" lon="5.89874">
        <ele>874.4606</ele>
        <time>2017-03-14T14:34:00Z</time>
      </trkpt>
      <trkpt lat="45.46304" lon="5.8987">
        <ele>873.5886</ele>
        <time>2017-03-14T14:34:09Z</time>
      </trkpt>
      <trkpt lat="45.46312" lon="5.89876">
        <ele>874.43414</ele>
        <time>2017-03-14T14:34:20Z</time>
      </trkpt>
      <trkpt lat="45.46315" lon="5.89879">
        <ele>873.88715</ele>
        <time>2017-03-14T14:34:24Z</time>
      </trkpt>
    </trkseg>
  </trk>
</gpx>